Another Hard Day at the Office Weather Stats

 
 
 

High monthly outside Temperature, 23.6 , C
Low monthly outside Temperature, 6.2 , C
High yearly outside Temperature, 31.9 , C
Low yearly outside Temperature, 0.7 , C

Low monthly barometer, 993.6 , mb
High monthly barometer, 1028.3 , mb
Low yearly barometer, 976.8 , mb
High yearly barometer 1035.7 , mb

High wind speed, 20.0 , mph
Time of High wind speed, 0:03 , mph
High monthly wind speed, 54.0 , mph
High yearly wind speed, 64.0 , mph

 

 




3123
                    Temp     Hi    Low   Out    Dew  Wind  Wind   Wind    Hi    Hi   Wind   Heat    THW                Rain    Heat    Cool    In     In    In     In     In   In Air  Wind  Wind    ISS   Arc.
  Date    Time     Out   Temp   Temp   Hum    Pt. Speed   Dir    Run Speed   Dir  Chill  Index  Index   Bar    Rain  Rate    D-D     D-D    Temp   Hum    Dew   Heat    EMC Density  Samp   Tx   Recept  Int.
---------------------------------------------------------------------------------------------------------------------------------------------------------------------------------------------------------------
23/10/14   0:05   11.5   11.5   11.5    81    8.4   2.0   WNW   0.17   4.0   WNW   11.5   11.4   11.4  1023.3  0.00   0.0   0.024   0.000   22.0    57   13.1   21.7  10.49 1.1906    115    1    100.0    5 
23/10/14   0:10   11.5   11.5   11.5    81    8.4   2.0    NW   0.17   4.0   WNW   11.5   11.4   11.4  1023.2  0.00   0.0   0.024   0.000   22.0    57   13.1   21.7  10.49 1.1906    116    1    100.0    5 
23/10/14   0:15   11.4   11.5   11.4    81    8.3   1.0    NW   0.08   4.0   WNW   11.4   11.3   11.3  1023.2  0.00   0.0   0.024   0.000   22.0    57   13.1   21.7  10.49 1.1906    116    1    100.0    5 
23/10/14   0:20   11.5   11.5   11.4    81    8.4   4.0   WNW   0.33   6.0     W   11.1   11.4   11.0  1023.2  0.00   0.0   0.024   0.000   22.0    57   13.1   21.7  10.49 1.1905    117    1    100.0    5 
23/10/14   0:25   11.6   11.6   11.5    81    8.5   4.0   WNW   0.33   7.0     W   11.2   11.5   11.1  1023.2  0.00   0.0   0.023   0.000   22.0    57   13.1   21.7  10.49 1.1905    116    1    100.0    5 
23/10/14   0:30   11.7   11.7   11.6    81    8.6   5.0     W   0.42   9.0     W   11.0   11.6   10.8  1023.2  0.00   0.0   0.023   0.000   22.0    57   13.1   21.7  10.49 1.1906    115    1    100.0    5 
23/10/14   0:35   11.9   11.9   11.7    80    8.5   5.0     W   0.42   8.0     W   11.2   11.7   11.1  1023.1  0.00   0.0   0.022   0.000   22.0    58   13.4   21.8  10.69 1.1902    116    1    100.0    5 
23/10/14   0:40   12.0   12.0   11.9    80    8.7   5.0     W   0.42   9.0     W   11.3   11.8   11.2  1023.1  0.20   0.0   0.022   0.000   22.0    58   13.4   21.8  10.69 1.1901    116    1    100.0    5 
23/10/14   0:45   12.1   12.1   12.0    80    8.7   6.0     W   0.50  12.0   WSW   11.1   11.9   10.9  1023.0  0.00   0.0   0.022   0.000   22.0    58   13.4   21.8  10.69 1.1900    116    1    100.0    5 
23/10/14   0:50   12.1   12.1   12.1    79    8.5   5.0   WNW   0.42  12.0     W   11.4   11.9   11.2  1023.0  0.00   0.0   0.022   0.000   22.0    58   13.4   21.8  10.69 1.1900    117    1    100.0    5 
23/10/14   0:55   12.1   12.1   12.1    79    8.6   7.0   WNW   0.58  11.0     W   11.0   11.9   10.8  1023.0  0.00   0.0   0.022   0.000   22.0    58   13.4   21.8  10.69 1.1900    115    1    100.0    5 
23/10/14   1:00   12.2   12.2   12.1    79    8.6   7.0     W   0.58  12.0     W   11.1   12.0   10.9  1023.0  0.00   0.0   0.021   0.000   22.0    58   13.4   21.8  10.69 1.1900    115    1    100.0    5 
23/10/14   1:05   12.3   12.3   12.2    78    8.6   7.0     W   0.58  11.0     W   11.2   12.1   10.9  1022.9  0.00   0.0   0.021   0.000   22.0    58   13.4   21.8  10.69 1.1899    116    1    100.0    5 
23/10/14   1:10   12.3   12.3   12.3    78    8.6   7.0     W   0.58  12.0   WNW   11.2   12.1   11.0  1022.9  0.00   0.0   0.021   0.000   22.0    58   13.4   21.8  10.69 1.1899    117    1    100.0    5 
23/10/14   1:15   12.4   12.4   12.3    77    8.5   6.0     W   0.50  12.0     W   11.6   12.2   11.3  1022.8  0.00   0.0   0.021   0.000   22.0    58   13.4   21.8  10.69 1.1897    116    1    100.0    5 
23/10/14   1:20   12.4   12.4   12.4    77    8.5   5.0     W   0.42  10.0     W   11.8   12.2   11.6  1022.9  0.00   0.0   0.021   0.000   22.0    58   13.4   21.8  10.69 1.1899    116    1    100.0    5 
23/10/14   1:25   12.4   12.4   12.3    77    8.5   6.0     W   0.50  10.0     W   11.6   12.2   11.3  1022.9  0.00   0.0   0.021   0.000   22.0    58   13.4   21.8  10.69 1.1898    116    1    100.0    5 
23/10/14   1:30   12.4   12.4   12.4    77    8.5   7.0     W   0.58  10.0     W   11.3   12.2   11.1  1022.8  0.00   0.0   0.021   0.000   22.0    58   13.4   21.8  10.69 1.1898    117    1    100.0    5 
23/10/14   1:35   12.4   12.4   12.4    77    8.5   8.0     W   0.67  13.0     W   11.0   12.2   10.8  1022.8  0.00   0.0   0.020   0.000   22.0    58   13.4   21.8  10.69 1.1898    117    1    100.0    5 
23/10/14   1:40   12.6   12.6   12.4    76    8.4   8.0     W   0.67  12.0     W   11.1   12.3   10.8  1022.8  0.00   0.0   0.020   0.000   22.0    58   13.4   21.8  10.69 1.1898    116    1    100.0    5 
23/10/14   1:45   12.6   12.6   12.5    76    8.4   7.0     W   0.58  12.0     W   11.5   12.3   11.2  1022.8  0.00   0.0   0.020   0.000   22.0    58   13.4   21.8  10.69 1.1898    117    1    100.0    5 
23/10/14   1:50   12.6   12.6   12.6    76    8.5   7.0     W   0.58  14.0     W   11.6   12.3   11.3  1022.7  0.00   0.0   0.020   0.000   22.0    58   13.4   21.8  10.69 1.1897    117    1    100.0    5 
23/10/14   1:55   12.6   12.6   12.6    76    8.5   6.0     W   0.50  10.0     W   11.8   12.3   11.5  1022.7  0.00   0.0   0.020   0.000   22.0    58   13.4   21.8  10.69 1.1897    117    1    100.0    5 
23/10/14   2:00   12.6   12.6   12.6    76    8.5   7.0     W   0.58  13.0     W   11.6   12.3   11.3  1022.8  0.00   0.0   0.020   0.000   22.0    58   13.4   21.8  10.69 1.1898    116    1    100.0    5 
23/10/14   2:05   12.7   12.7   12.6    76    8.5   8.0     W   0.67  13.0     W   11.3   12.4   11.0  1022.7  0.00   0.0   0.020   0.000   22.0    58   13.4   21.8  10.69 1.1896    116    1    100.0    5 
23/10/14   2:10   12.8   12.8   12.7    76    8.7   9.0     W   0.75  16.0     W   11.0   12.5   10.7  1022.7  0.00   0.0   0.019   0.000   22.0    58   13.4   21.8  10.69 1.1897    117    1    100.0    5 
23/10/14   2:15   12.9   12.9   12.8    76    8.8   8.0     W   0.67  16.0     W   11.5   12.6   11.2  1022.6  0.00   0.0   0.019   0.000   22.0    57   13.1   21.7  10.49 1.1899    117    1    100.0    5 
23/10/14   2:20   12.9   12.9   12.9    76    8.8   7.0     W   0.58  11.0     W   12.0   12.7   11.7  1022.6  0.00   0.0   0.019   0.000   22.0    57   13.1   21.7  10.49 1.1899    115    1    100.0    5 
23/10/14   2:25   12.9   12.9   12.9    76    8.8   7.0     W   0.58  12.0     W   12.0   12.7   11.7  1022.6  0.00   0.0   0.019   0.000   21.9    57   13.0   21.6  10.49 1.1901    117    1    100.0    5 
23/10/14   2:30   13.0   13.0   12.9    76    8.9   7.0     W   0.58  11.0   WNW   12.1   12.7   11.8  1022.6  0.00   0.0   0.019   0.000   21.9    57   13.0   21.6  10.49 1.1902    116    1    100.0    5 
23/10/14   2:35   13.0   13.0   13.0    76    8.9   6.0     W   0.50  11.0     W   12.3   12.7   12.0  1022.6  0.00   0.0   0.019   0.000   22.0    58   13.4   21.8  10.69 1.1896    117    1    100.0    5 
23/10/14   2:40   13.1   13.1   13.0    76    8.9   7.0     W   0.58  12.0     W   12.1   12.8   11.8  1022.5  0.00   0.0   0.018   0.000   22.0    58   13.4   21.8  10.69 1.1894    117    1    100.0    5 
23/10/14   2:45   13.0   13.0   13.0    76    8.9   7.0     W   0.58  12.0     W   12.1   12.7   11.8  1022.5  0.00   0.0   0.019   0.000   22.0    58   13.4   21.8  10.69 1.1894    116    1    100.0    5 
23/10/14   2:50   12.9   13.0   12.9    76    8.8   6.0     W   0.50  10.0     W   12.2   12.7   11.9  1022.4  0.00   0.0   0.019   0.000   22.0    58   13.4   21.8  10.69 1.1893    116    1    100.0    5 
23/10/14   2:55   12.9   12.9   12.9    76    8.8   7.0     W   0.58  10.0     W   12.0   12.7   11.7  1022.4  0.00   0.0   0.019   0.000   22.0    58   13.4   21.8  10.69 1.1893    118    1    100.0    5 
23/10/14   3:00   12.9   12.9   12.9    76    8.8   5.0     W   0.42   9.0   WNW   12.4   12.6   12.1  1022.4  0.00   0.0   0.019   0.000   22.0    58   13.4   21.8  10.69 1.1893    116    1    100.0    5 
23/10/14   3:05   12.8   12.9   12.8    76    8.7   6.0     W   0.50   9.0     W   12.1   12.6   11.8  1022.3  0.00   0.0   0.019   0.000   22.0    58   13.4   21.8  10.69 1.1892    117    1    100.0    5 
23/10/14   3:10   12.8   12.8   12.8    76    8.7   5.0   WNW   0.42   8.0     W   12.3   12.5   12.0  1022.3  0.00   0.0   0.019   0.000   22.0    57   13.1   21.7  10.49 1.1894    117    1    100.0    5 
23/10/14   3:15   12.8   12.8   12.8    77    8.8   5.0   WNW   0.42   8.0   WNW   12.3   12.6   12.1  1022.3  0.00   0.0   0.019   0.000   21.9    58   13.3   21.7  10.69 1.1894    115    1    100.0    5 
23/10/14   3:20   12.7   12.8   12.7    77    8.8   6.0     W   0.50  10.0   WNW   11.9   12.5   11.7  1022.2  0.00   0.0   0.019   0.000   21.9    57   13.0   21.6  10.49 1.1896    116    1    100.0    5 
23/10/14   3:25   12.7   12.7   12.7    77    8.8   4.0     W   0.33   9.0     W   12.5   12.5   12.3  1022.2  0.00   0.0   0.019   0.000   21.9    57   13.0   21.6  10.49 1.1896    115    1    100.0    5 
23/10/14   3:30   12.7   12.7   12.7    77    8.7   6.0     W   0.50  12.0     W   11.9   12.4   11.7  1022.1  0.00   0.0   0.020   0.000   21.9    57   13.0   21.6  10.49 1.1895    116    1    100.0    5 
23/10/14   3:35   12.7   12.7   12.7    77    8.7   6.0     W   0.50   9.0     W   11.9   12.4   11.7  1022.2  0.00   0.0   0.020   0.000   21.9    57   13.0   21.6  10.49 1.1896    115    1    100.0    5 
23/10/14   3:40   12.7   12.7   12.7    77    8.7   8.0     W   0.67  12.0     W   11.3   12.4   11.1  1022.1  0.00   0.0   0.020   0.000   21.9    57   13.0   21.6  10.49 1.1895    116    1    100.0    5 
23/10/14   3:45   12.7   12.7   12.7    76    8.5   8.0     W   0.67  12.0     W   11.3   12.4   11.0  1022.1  0.00   0.0   0.020   0.000   21.9    57   13.0   21.6  10.49 1.1898    116    1    100.0    5 
23/10/14   3:50   12.7   12.7   12.7    76    8.5   6.0     W   0.50  10.0     W   11.9   12.4   11.6  1022.0  0.00   0.0   0.020   0.000   21.9    57   13.0   21.6  10.49 1.1897    116    1    100.0    5 
23/10/14   3:55   12.7   12.7   12.7    76    8.5   5.0   WNW   0.42   9.0   WNW   12.2   12.4   11.9  1022.0  0.00   0.0   0.020   0.000   21.9    57   13.0   21.6  10.49 1.1897    117    1    100.0    5 
23/10/14   4:00   12.7   12.7   12.6    76    8.5   4.0   WNW   0.33   7.0   WNW   12.4   12.4   12.2  1021.9  0.00   0.0   0.020   0.000   21.9    58   13.3   21.6  10.69 1.1893    116    1    100.0    5 
23/10/14   4:05   12.6   12.7   12.6    77    8.7   4.0     W   0.33   6.0   WNW   12.4   12.4   12.2  1021.9  0.00   0.0   0.020   0.000   21.9    57   13.0   21.6  10.49 1.1896    117    1    100.0    5 
23/10/14   4:10   12.6   12.6   12.6    77    8.7   4.0   WNW   0.33   8.0   WNW   12.4   12.4   12.2  1021.8  0.00   0.0   0.020   0.000   21.9    57   13.0   21.6  10.49 1.1895    117    1    100.0    5 
23/10/14   4:15   12.6   12.6   12.6    77    8.6   4.0   WNW   0.33   7.0     W   12.3   12.3   12.1  1021.7  0.00   0.0   0.020   0.000   21.9    57   13.0   21.6  10.49 1.1894    117    1    100.0    5 
23/10/14   4:20   12.6   12.6   12.6    77    8.6   4.0   WNW   0.33   7.0     W   12.3   12.3   12.1  1021.7  0.00   0.0   0.020   0.000   21.9    58   13.3   21.6  10.69 1.1891    117    1    100.0    5 
23/10/14   4:25   12.6   12.6   12.6    77    8.6   4.0   WNW   0.33   9.0   WNW   12.3   12.3   12.1  1021.8  0.00   0.0   0.020   0.000   21.9    58   13.3   21.6  10.69 1.1891    115    1    100.0    5 
23/10/14   4:30   12.5   12.6   12.5    77    8.6   4.0   WNW   0.33   7.0   WNW   12.3   12.3   12.1  1021.7  0.20   0.0   0.020   0.000   21.9    58   13.3   21.6  10.69 1.1890    116    1    100.0    5 
23/10/14   4:35   12.5   12.6   12.5    77    8.6   4.0   WNW   0.33   7.0    NW   12.3   12.3   12.1  1021.7  0.00   0.0   0.020   0.000   21.9    58   13.3   21.6  10.69 1.1891    117    1    100.0    5 
23/10/14   4:40   12.5   12.5   12.4    77    8.6   6.0   WNW   0.50  10.0     W   11.7   12.3   11.4  1021.7  0.00   0.0   0.020   0.000   21.9    57   13.0   21.6  10.49 1.1894    116    1    100.0    5 
23/10/14   4:45   12.5   12.5   12.4    77    8.6   5.0     W   0.42   9.0     W   11.9   12.3   11.7  1021.6  0.00   0.0   0.020   0.000   21.8    57   12.9   21.4  10.50 1.1896    117    1    100.0    5 
23/10/14   4:50   12.4   12.5   12.4    77    8.5   4.0   WNW   0.33   7.0   WNW   12.2   12.2   11.9  1021.5  0.00   0.0   0.020   0.000   21.8    57   12.9   21.4  10.50 1.1894    117    1    100.0    5 
23/10/14   4:55   12.4   12.5   12.4    77    8.5   5.0     W   0.42  12.0     W   11.9   12.2   11.7  1021.5  0.00   0.0   0.020   0.000   21.8    57   12.9   21.4  10.50 1.1894    116    1    100.0    5 
23/10/14   5:00   12.4   12.5   12.4    77    8.5   4.0   WNW   0.33  10.0   WNW   12.2   12.2   11.9  1021.5  0.00   0.0   0.020   0.000   21.8    58   13.2   21.5  10.70 1.1891    117    1    100.0    5 
23/10/14   5:05   12.4   12.5   12.4    77    8.5   4.0   WNW   0.33   8.0   WNW   12.2   12.2   11.9  1021.5  0.00   0.0   0.020   0.000   21.8    58   13.2   21.5  10.70 1.1891    114    1    100.0    5 
23/10/14   5:10   12.4   12.5   12.4    77    8.5   2.0   WNW   0.17   5.0   WNW   12.4   12.2   12.2  1021.5  0.00   0.0   0.020   0.000   21.8    58   13.2   21.5  10.70 1.1891    117    1    100.0    5 
23/10/14   5:15   12.4   12.4   12.4    77    8.5   2.0   WNW   0.17   5.0     W   12.4   12.2   12.2  1021.5  0.00   0.0   0.020   0.000   21.8    58   13.2   21.5  10.70 1.1891    117    1    100.0    5 
23/10/14   5:20   12.4   12.4   12.4    77    8.5   3.0   WNW   0.25   4.0   WNW   12.4   12.2   12.2  1021.5  0.00   0.0   0.021   0.000   21.8    58   13.2   21.5  10.70 1.1891    116    1    100.0    5 
23/10/14   5:25   12.4   12.4   12.4    77    8.5   3.0   WNW   0.25   4.0   WNW   12.4   12.2   12.2  1021.5  0.00   0.0   0.021   0.000   21.8    58   13.2   21.5  10.70 1.1891    116    1    100.0    5 
23/10/14   5:30   12.4   12.4   12.4    78    8.7   3.0     W   0.25   7.0   WSW   12.4   12.2   12.2  1021.6  0.00   0.0   0.021   0.000   21.8    58   13.2   21.5  10.70 1.1892    116    1    100.0    5 
23/10/14   5:35   12.3   12.4   12.3    78    8.6   3.0     W   0.25   5.0     W   12.3   12.1   12.1  1021.6  0.00   0.0   0.021   0.000   21.8    58   13.1   21.4  10.70 1.1895    115    1    100.0    5 
23/10/14   5:40   12.3   12.3   12.3    78    8.6   2.0     W   0.17   4.0   WNW   12.3   12.1   12.1  1021.4  0.00   0.0   0.021   0.000   21.8    58   13.2   21.5  10.70 1.1890    116    1    100.0    5 
23/10/14   5:45   12.3   12.3   12.3    78    8.6   2.0   WNW   0.17   5.0   WNW   12.3   12.1   12.1  1021.4  0.00   0.0   0.021   0.000   21.8    58   13.1   21.4  10.70 1.1892    117    1    100.0    5 
23/10/14   5:50   12.3   12.3   12.3    78    8.6   3.0   WNW   0.25   5.0   WNW   12.3   12.1   12.1  1021.4  0.00   0.0   0.021   0.000   21.8    58   13.1   21.4  10.70 1.1892    117    1    100.0    5 
23/10/14   5:55   12.3   12.3   12.3    78    8.6   2.0   WNW   0.17   4.0   WNW   12.3   12.1   12.1  1021.4  0.00   0.0   0.021   0.000   21.8    58   13.1   21.4  10.70 1.1892    117    1    100.0    5 
23/10/14   6:00   12.3   12.3   12.3    78    8.6   3.0     W   0.25   5.0     W   12.3   12.1   12.1  1021.4  0.00   0.0   0.021   0.000   21.8    58   13.1   21.4  10.70 1.1893    117    1    100.0    5 
23/10/14   6:05   12.3   12.3   12.3    78    8.6   4.0     W   0.33   7.0     W   12.1   12.1   11.8  1021.4  0.00   0.0   0.021   0.000   21.8    57   12.9   21.4  10.50 1.1895    118    1    100.0    5 
23/10/14   6:10   12.4   12.4   12.3    78    8.7   5.0     W   0.42   9.0     W   11.8   12.2   11.6  1021.4  0.00   0.0   0.021   0.000   21.8    57   12.9   21.4  10.50 1.1895    116    1    100.0    5 
23/10/14   6:15   12.4   12.4   12.4    78    8.7   6.0     W   0.50   8.0     W   11.6   12.2   11.4  1021.4  0.00   0.0   0.020   0.000   21.8    57   12.9   21.4  10.50 1.1896    117    1    100.0    5 
23/10/14   6:20   12.5   12.5   12.4    79    9.0   6.0     W   0.50   8.0   WSW   11.7   12.3   11.5  1021.4  0.00   0.0   0.020   0.000   21.8    57   12.9   21.4  10.50 1.1895    116    1    100.0    5 
23/10/14   6:25   12.6   12.6   12.5    79    9.0   4.0     W   0.33   8.0     W   12.3   12.4   12.2  1021.4  0.00   0.0   0.020   0.000   21.8    57   12.9   21.4  10.50 1.1895    117    1    100.0    5 
23/10/14   6:30   12.6   12.6   12.6    79    9.0   5.0     W   0.42   7.0     W   12.0   12.4   11.8  1021.4  0.00   0.0   0.020   0.000   21.8    57   12.9   21.4  10.50 1.1895    116    1    100.0    5 
23/10/14   6:35   12.7   12.7   12.6    80    9.3   6.0     W   0.50  11.0     W   11.9   12.5   11.7  1021.4  0.00   0.0   0.020   0.000   21.8    57   12.9   21.4  10.50 1.1895    117    1    100.0    5 
23/10/14   6:40   12.8   12.8   12.7    80    9.4   6.0     W   0.50  11.0     W   12.0   12.6   11.8  1021.3  0.00   0.0   0.019   0.000   21.8    57   12.9   21.4  10.50 1.1895    116    1    100.0    5 
23/10/14   6:45   12.8   12.8   12.8    80    9.5   6.0     W   0.50   8.0     W   12.1   12.7   11.9  1021.2  0.00   0.0   0.019   0.000   21.7    57   12.8   21.3  10.51 1.1897    116    1    100.0    5 
23/10/14   6:50   12.9   12.9   12.8    80    9.5   5.0     W   0.42   8.0   WSW   12.4   12.7   12.2  1021.2  0.00   0.0   0.019   0.000   21.7    57   12.8   21.3  10.51 1.1896    117    1    100.0    5 
23/10/14   6:55   12.9   12.9   12.9    80    9.6   6.0     W   0.50   9.0     W   12.2   12.8   12.1  1021.2  0.00   0.0   0.019   0.000   21.7    57   12.8   21.3  10.51 1.1896    116    1    100.0    5 
23/10/14   7:00   13.0   13.0   12.9    81    9.8   6.0   WSW   0.50   9.0   WSW   12.3   12.8   12.1  1021.1  0.00   0.0   0.019   0.000   21.7    57   12.8   21.3  10.51 1.1895    116    1    100.0    5 
23/10/14   7:05   13.1   13.1   13.0    82   10.1   8.0   WSW   0.67  11.0     W   11.7   12.9   11.6  1021.1  0.00   0.0   0.018   0.000   21.7    57   12.8   21.3  10.51 1.1895    113    1     99.1    5 
23/10/14   7:10   13.1   13.1   13.1    82   10.1   9.0   WSW   0.75  12.0   WSW   11.4   13.0   11.3  1021.1  0.00   0.0   0.018   0.000   21.7    57   12.8   21.3  10.51 1.1895    118    1    100.0    5 
23/10/14   7:15   13.2   13.2   13.1    82   10.2  12.0   WSW   1.00  16.0   WSW   10.6   13.1   10.4  1021.1  0.00   0.0   0.018   0.000   21.7    57   12.8   21.3  10.51 1.1895    116    1    100.0    5 
23/10/14   7:20   13.3   13.3   13.2    82   10.3  12.0   WSW   1.00  16.0   WSW   10.6   13.2   10.5  1021.1  0.00   0.0   0.018   0.000   21.7    57   12.8   21.3  10.51 1.1895    117    1    100.0    5 
23/10/14   7:25   13.3   13.3   13.2    82   10.3  12.0   WSW   1.00  15.0   WSW   10.6   13.2   10.5  1021.1  0.00   0.0   0.018   0.000   21.7    57   12.8   21.3  10.51 1.1895    116    1    100.0    5 
23/10/14   7:30   13.3   13.3   13.2    82   10.3  11.0   WSW   0.92  15.0    SW   10.9   13.2   10.8  1021.1  0.00   0.0   0.018   0.000   21.7    57   12.8   21.3  10.51 1.1895    117    1    100.0    5 
23/10/14   7:35   13.3   13.3   13.2    82   10.3   9.0   WSW   0.75  14.0   WSW   11.6   13.2   11.5  1021.2  0.00   0.0   0.018   0.000   21.7    57   12.8   21.3  10.51 1.1896    117    1    100.0    5 
23/10/14   7:40   13.3   13.3   13.2    83   10.5   9.0   WSW   0.75  12.0   WSW   11.6   13.2   11.5  1021.1  0.00   0.0   0.018   0.000   21.7    57   12.8   21.3  10.51 1.1895    117    1    100.0    5 
23/10/14   7:45   13.3   13.3   13.2    83   10.5   8.0   WSW   0.67  11.0   WSW   12.0   13.2   11.9  1021.1  0.00   0.0   0.018   0.000   21.7    57   12.8   21.3  10.51 1.1895    116    1    100.0    5 
23/10/14   7:50   13.3   13.3   13.3    84   10.6   8.0   WSW   0.67  11.0   WSW   12.0   13.2   11.9  1021.2  0.00   0.0   0.018   0.000   21.7    58   13.1   21.3  10.71 1.1893    117    1    100.0    5 
23/10/14   7:55   13.3   13.3   13.3    84   10.7   8.0   WSW   0.67  12.0   WSW   12.1   13.3   12.0  1021.1  0.00   0.0   0.017   0.000   21.8    58   13.1   21.4  10.70 1.1889    117    1    100.0    5 
23/10/14   8:00   13.4   13.4   13.3    84   10.7   8.0   WSW   0.67  12.0   WSW   12.1   13.3   12.1  1021.2  0.00   0.0   0.017   0.000   21.8    58   13.1   21.4  10.70 1.1890    117    1    100.0    5 
23/10/14   8:05   13.4   13.4   13.4    84   10.7   9.0   WSW   0.75  15.0     W   11.7   13.3   11.7  1021.2  0.00   0.0   0.017   0.000   21.8    58   13.1   21.4  10.70 1.1890    115    1    100.0    5 
23/10/14   8:10   13.4   13.4   13.4    84   10.8  10.0   WSW   0.83  14.0   WSW   11.4   13.4   11.3  1021.1  0.00   0.0   0.017   0.000   21.8    58   13.1   21.4  10.70 1.1889    115    1    100.0    5 
23/10/14   8:15   13.5   13.5   13.4    84   10.8  10.0   WSW   0.83  13.0   WSW   11.5   13.4   11.4  1021.1  0.00   0.0   0.017   0.000   21.8    58   13.1   21.4  10.70 1.1889    117    1    100.0    5 
23/10/14   8:20   13.6   13.6   13.5    84   10.9   9.0   WSW   0.75  13.0   WSW   11.9   13.5   11.8  1021.1  0.00   0.0   0.017   0.000   21.8    58   13.2   21.5  10.70 1.1887    115    1    100.0    5 
23/10/14   8:25   13.6   13.6   13.6    84   10.9   9.0   WSW   0.75  12.0   WSW   11.9   13.5   11.8  1021.1  0.00   0.0   0.017   0.000   21.8    58   13.2   21.5  10.70 1.1886    116    1    100.0    5 
23/10/14   8:30   13.7   13.7   13.6    84   11.0   8.0   WSW   0.67  11.0   WSW   12.4   13.6   12.4  1021.1  0.00   0.0   0.016   0.000   21.8    58   13.2   21.5  10.70 1.1886    117    1    100.0    5 
23/10/14   8:35   13.7   13.7   13.7    84   11.1   7.0   WSW   0.58  10.0   WSW   12.9   13.7   12.8  1021.1  0.00   0.0   0.016   0.000   21.9    59   13.5   21.7  10.89 1.1880    116    1    100.0    5 
23/10/14   8:40   13.8   13.8   13.7    84   11.1   7.0   WSW   0.58  10.0   WSW   13.0   13.7   12.9  1021.1  0.00   0.0   0.016   0.000   21.9    59   13.5   21.7  10.89 1.1881    117    1    100.0    5 
23/10/14   8:45   13.8   13.8   13.7    84   11.1   9.0   WSW   0.75  12.0   WSW   12.2   13.7   12.1  1021.2  0.00   0.0   0.016   0.000   22.0    60   13.9   21.8  11.02 1.1872    116    1    100.0    5 
23/10/14   8:50   13.8   13.8   13.7    84   11.1  10.0   WSW   0.83  14.0   WSW   11.8   13.7   11.8  1021.2  0.00   0.0   0.016   0.000   22.1    60   13.9   21.9  11.02 1.1869    116    1    100.0    5 
23/10/14   8:55   13.8   13.9   13.8    85   11.4  10.0   WSW   0.83  12.0   WSW   11.9   13.8   11.8  1021.1  0.00   0.0   0.016   0.000   22.1    59   13.7   21.9  10.88 1.1872    116    1    100.0    5 
23/10/14   9:00   13.8   13.8   13.8    85   11.4   9.0   WSW   0.75  11.0   WSW   12.2   13.8   12.2  1021.0  0.00   0.0   0.016   0.000   22.1    59   13.7   21.9  10.88 1.1870    117    1    100.0    5 
23/10/14   9:05   13.9   13.9   13.8    84   11.2   9.0   WSW   0.75  13.0   WSW   12.3   13.8   12.2  1020.9  0.00   0.0   0.015   0.000   22.1    59   13.7   21.9  10.88 1.1867    117    1    100.0    5 
23/10/14   9:10   14.0   14.0   13.9    84   11.3  10.0   WSW   0.83  12.0   WSW   12.1   13.9   12.0  1020.9  0.00   0.0   0.015   0.000   22.1    59   13.7   21.9  10.88 1.1866    116    1    100.0    5 
23/10/14   9:15   14.0   14.0   14.0    84   11.3  10.0   WSW   0.83  13.0   WSW   12.1   13.9   12.0  1020.9  0.00   0.0   0.015   0.000   22.1    59   13.7   21.9  10.88 1.1867    117    1    100.0    5 
23/10/14   9:20   14.1   14.1   13.9    83   11.2  11.0   WSW   0.92  13.0   WSW   11.8   13.9   11.7  1021.0  0.00   0.0   0.015   0.000   22.1    58   13.5   21.9  10.68 1.1870    116    1    100.0    5 
23/10/14   9:25   14.2   14.2   14.1    83   11.3  15.0   WSW   1.25  20.0    SW   10.9   14.1   10.8  1021.0  0.00   0.0   0.014   0.000   22.1    59   13.7   21.9  10.88 1.1870    116    1    100.0    5 
23/10/14   9:30   14.2   14.2   14.1    83   11.4  17.0   WSW   1.42  21.0   WSW   10.7   14.1   10.6  1021.0  0.00   0.0   0.014   0.000   22.1    58   13.4   21.8  10.68 1.1874    116    1    100.0    5 
23/10/14   9:35   14.2   14.2   14.2    84   11.6  16.0    SW   1.33  22.0    SW   10.8   14.2   10.8  1020.9  0.00   0.0   0.014   0.000   22.1    58   13.4   21.8  10.68 1.1873    117    1    100.0    5 
23/10/14   9:40   14.1   14.3   14.1    86   11.8  19.0   WSW   1.58  23.0   WSW   10.3   14.1   10.2  1021.0  0.00   0.0   0.015   0.000   22.1    58   13.4   21.8  10.68 1.1874    117    1    100.0    5 
23/10/14   9:45   14.1   14.1   14.1    86   11.7  18.0    SW   1.50  23.0   WSW   10.3   14.0   10.3  1021.0  0.00   0.0   0.015   0.000   22.1    58   13.4   21.8  10.68 1.1873    116    1    100.0    5 
23/10/14   9:50   13.9   14.1   13.9    87   11.8  18.0   WSW   1.50  23.0   WSW   10.2   13.9   10.2  1021.0  0.00   0.0   0.015   0.000   22.1    58   13.4   21.8  10.68 1.1873    117    1    100.0    5 
23/10/14   9:55   13.7   13.9   13.7    88   11.8  17.0   WSW   1.42  25.0   WSW   10.1   13.7   10.1  1021.0  0.00   0.0   0.016   0.000   22.1    58   13.4   21.8  10.68 1.1873    117    1    100.0    5 
23/10/14  10:00   13.6   13.7   13.6    89   11.8  12.0     W   1.00  17.0   WSW   10.9   13.6   10.9  1020.9  0.00   0.0   0.017   0.000   22.0    58   13.4   21.8  10.69 1.1876    115    1    100.0    5 
23/10/14  10:05   13.4   13.6   13.4    89   11.7   8.0     W   0.67  13.0     W   12.2   13.5   12.2  1020.9  0.00   0.0   0.017   0.000   22.0    58   13.4   21.8  10.69 1.1875    117    1    100.0    5 
23/10/14  10:10   13.3   13.4   13.3    90   11.7   8.0     W   0.67  12.0     W   12.0   13.3   12.1  1020.9  0.00   0.0   0.018   0.000   22.0    58   13.4   21.8  10.69 1.1875    116    1    100.0    5 
23/10/14  10:15   13.3   13.3   13.3    91   11.9  11.0   WSW   0.92  17.0   WSW   10.9   13.4   11.0  1020.8  0.00   0.0   0.017   0.000   22.0    58   13.4   21.8  10.69 1.1874    116    1    100.0    5 
23/10/14  10:20   13.4   13.4   13.3    91   11.9  13.0   WSW   1.08  17.0   WSW   10.4   13.4   10.5  1020.8  0.00   0.0   0.017   0.000   22.0    58   13.4   21.8  10.69 1.1874    117    1    100.0    5 
23/10/14  10:25   13.4   13.4   13.4    91   12.0  13.0    SW   1.08  15.0   WSW   10.5   13.5   10.6  1020.7  0.00   0.0   0.017   0.000   22.0    58   13.4   21.8  10.69 1.1873    117    1    100.0    5 
23/10/14  10:30   13.6   13.6   13.4    91   12.1  11.0    SW   0.92  13.0    SW   11.2   13.6   11.3  1020.6  0.00   0.0   0.017   0.000   22.0    58   13.4   21.8  10.69 1.1872    117    1    100.0    5 
23/10/14  10:35   13.7   13.7   13.6    91   12.3  10.0   WSW   0.83  14.0   WSW   11.7   13.8   11.8  1020.6  0.00   0.0   0.016   0.000   22.0    58   13.4   21.8  10.69 1.1872    116    1    100.0    5 
23/10/14  10:40   13.8   13.8   13.7    91   12.3  10.0   WSW   0.83  13.0   WSW   11.8   13.8   11.9  1020.6  0.00   0.0   0.016   0.000   22.0    58   13.4   21.8  10.69 1.1872    116    1    100.0    5 
23/10/14  10:45   13.8   13.8   13.8    90   12.2  10.0   WSW   0.83  13.0   WSW   11.9   13.9   11.9  1020.6  0.00   0.0   0.016   0.000   22.0    58   13.4   21.8  10.69 1.1871    117    1    100.0    5 
23/10/14  10:50   13.9   13.9   13.8    90   12.3  11.0   WSW   0.92  16.0   WSW   11.7   14.0   11.7  1020.6  0.00   0.0   0.015   0.000   22.0    58   13.4   21.8  10.69 1.1871    116    1    100.0    5 
23/10/14  10:55   14.1   14.1   13.9    89   12.3  12.0   WSW   1.00  17.0   WSW   11.6   14.2   11.6  1020.5  0.00   0.0   0.015   0.000   22.0    58   13.4   21.8  10.69 1.1871    116    1    100.0    5 
23/10/14  11:00   14.3   14.3   14.1    89   12.5  17.0   WSW   1.42  20.0   WSW   10.7   14.3   10.8  1020.5  0.00   0.0   0.014   0.000   22.0    58   13.4   21.8  10.69 1.1871    115    1    100.0    5 
23/10/14  11:05   14.4   14.4   14.3    88   12.5  16.0   WSW   1.33  20.0   WSW   11.1   14.4   11.1  1020.5  0.00   0.0   0.014   0.000   21.9    58   13.3   21.7  10.69 1.1874    116    1    100.0    5 
23/10/14  11:10   14.3   14.4   14.3    88   12.4  16.0   WSW   1.33  21.0   WSW   11.0   14.3   11.0  1020.6  0.00   0.0   0.014   0.000   21.9    58   13.3   21.7  10.69 1.1875    116    1    100.0    5 
23/10/14  11:15   14.3   14.4   14.3    87   12.2  16.0   WSW   1.33  20.0   WSW   11.0   14.3   11.0  1020.6  0.00   0.0   0.014   0.000   21.9    58   13.3   21.7  10.69 1.1875    115    1    100.0    5 
23/10/14  11:20   14.4   14.4   14.3    88   12.4  15.0   WSW   1.25  20.0   WSW   11.2   14.4   11.2  1020.6  0.00   0.0   0.014   0.000   21.9    58   13.3   21.7  10.69 1.1874    118    1    100.0    5 
23/10/14  11:25   14.3   14.4   14.3    88   12.4  15.0   WSW   1.25  19.0    SW   11.2   14.3   11.2  1020.5  0.00   0.0   0.014   0.000   21.9    58   13.3   21.7  10.69 1.1874    115    1    100.0    5 
23/10/14  11:30   14.2   14.3   14.2    89   12.4  16.0   WSW   1.33  23.0    SW   10.8   14.3   10.9  1020.6  0.00   0.0   0.014   0.000   21.9    58   13.3   21.6  10.69 1.1877    117    1    100.0    5 
23/10/14  11:35   14.2   14.2   14.2    90   12.5  18.0    SW   1.50  23.0   WSW   10.4   14.2   10.5  1020.6  0.00   0.0   0.014   0.000   21.9    58   13.3   21.6  10.69 1.1877    117    1    100.0    5 
23/10/14  11:40   14.1   14.2   14.1    90   12.5  16.0   WSW   1.33  21.0   WSW   10.7   14.2   10.8  1020.6  0.20   0.0   0.015   0.000   21.9    58   13.3   21.6  10.69 1.1877    117    1    100.0    5 
23/10/14  11:45   14.2   14.2   14.2    90   12.6  16.0    SW   1.33  20.0    SW   10.8   14.3   10.9  1020.6  0.00   0.0   0.014   0.000   21.9    58   13.3   21.6  10.69 1.1877    116    1    100.0    5 
23/10/14  11:50   14.2   14.3   14.2    90   12.6  16.0    SW   1.33  19.0   WSW   10.8   14.3   10.9  1020.6  0.00   0.0   0.014   0.000   21.9    58   13.3   21.7  10.69 1.1874    116    1    100.0    5 
23/10/14  11:55   14.3   14.3   14.2    90   12.7  15.0   WSW   1.25  19.0   WSW   11.1   14.3   11.1  1020.6  0.00   0.0   0.014   0.000   21.9    58   13.3   21.7  10.69 1.1874    116    1    100.0    5 
23/10/14  12:00   14.2   14.3   14.2    91   12.7  17.0    SW   1.42  22.0    SW   10.6   14.2   10.7  1020.5  0.00   0.0   0.014   0.000   21.9    58   13.3   21.6  10.69 1.1876    117    1    100.0    5 
23/10/14  12:05   13.9   14.1   13.9    91   12.5  15.0    SW   1.25  21.0    SW   10.7   14.0   10.7  1020.5  0.00   0.0   0.015   0.000   21.9    58   13.3   21.6  10.69 1.1876    116    1    100.0    5 
23/10/14  12:10   14.1   14.1   13.9    92   12.8  13.0    SW   1.08  17.0    SW   11.3   14.2   11.4  1020.3  0.00   0.0   0.015   0.000   21.9    58   13.3   21.6  10.69 1.1874    117    1    100.0    5 
23/10/14  12:15   14.2   14.2   14.1    92   12.9  14.0    SW   1.17  17.0    SW   11.2   14.3   11.3  1020.3  0.00   0.0   0.014   0.000   21.9    58   13.3   21.6  10.69 1.1874    116    1    100.0    5 
23/10/14  12:20   14.3   14.3   14.2    92   13.0  14.0    SW   1.17  16.0    SW   11.3   14.4   11.4  1020.3  0.00   0.0   0.014   0.000   21.9    58   13.3   21.6  10.69 1.1873    116    1    100.0    5 
23/10/14  12:25   14.3   14.3   14.2    91   12.8  16.0   WSW   1.33  22.0   WSW   10.9   14.3   10.9  1020.3  0.00   0.0   0.014   0.000   21.9    58   13.3   21.6  10.69 1.1873    117    1    100.0    5 
23/10/14  12:30   14.4   14.4   14.3    91   12.9  15.0   WSW   1.25  19.0    SW   11.2   14.4   11.3  1020.2  0.00   0.0   0.014   0.000   21.9    58   13.3   21.6  10.69 1.1873    116    1    100.0    5 
23/10/14  12:35   14.4   14.4   14.4    90   12.8  16.0   WSW   1.33  22.0   WSW   11.1   14.5   11.2  1020.2  0.00   0.0   0.014   0.000   21.9    58   13.3   21.6  10.69 1.1873    116    1    100.0    5 
23/10/14  12:40   14.4   14.4   14.4    91   13.0  16.0   WSW   1.33  20.0    SW   11.1   14.5   11.2  1020.1  0.00   0.0   0.014   0.000   21.8    58   13.2   21.5  10.70 1.1875    116    1    100.0    5 
23/10/14  12:45   14.4   14.4   14.4    91   12.9  18.0   WSW   1.50  24.0   WSW   10.7   14.4   10.8  1020.1  0.00   0.0   0.014   0.000   21.8    57   12.9   21.4  10.50 1.1877    117    1    100.0    5 
23/10/14  12:50   14.3   14.4   14.3    91   12.8  17.0    SW   1.42  22.0   WSW   10.7   14.3   10.8  1020.1  0.00   0.0   0.014   0.000   21.8    57   12.9   21.4  10.50 1.1877    116    1    100.0    5 
23/10/14  12:55   14.3   14.3   14.3    91   12.8  17.0    SW   1.42  20.0    SW   10.7   14.3   10.8  1020.0  0.00   0.0   0.014   0.000   21.8    57   12.9   21.4  10.50 1.1876    117    1    100.0    5 
23/10/14  13:00   14.4   14.4   14.3    91   12.9  16.0    SW   1.33  21.0    SW   11.1   14.4   11.1  1019.9  0.00   0.0   0.014   0.000   21.8    58   13.2   21.5  10.70 1.1873    117    1    100.0    5 
23/10/14  13:05   14.3   14.4   14.3    90   12.7  16.0   WSW   1.33  20.0   WSW   10.9   14.3   10.9  1020.0  0.00   0.0   0.014   0.000   21.8    57   12.9   21.4  10.50 1.1876    117    1    100.0    5 
23/10/14  13:10   14.2   14.3   14.2    90   12.6  16.0   WSW   1.33  19.0   WSW   10.8   14.3   10.9  1019.9  0.00   0.0   0.014   0.000   21.8    57   12.9   21.4  10.50 1.1876    116    1    100.0    5 
23/10/14  13:15   14.1   14.2   14.1    91   12.6  14.0   WSW   1.17  18.0    SW   11.0   14.1   11.1  1019.9  0.00   0.0   0.015   0.000   21.8    57   12.9   21.4  10.50 1.1878    117    1    100.0    5 
23/10/14  13:20   14.1   14.1   14.1    91   12.7  14.0    SW   1.17  17.0    SW   11.1   14.2   11.1  1019.8  0.00   0.0   0.015   0.000   21.8    57   12.9   21.4  10.50 1.1877    117    1    100.0    5 
23/10/14  13:25   14.3   14.3   14.1    92   13.0  13.0    SW   1.08  16.0    SW   11.5   14.4   11.6  1019.8  0.00   0.0   0.014   0.000   21.8    57   12.9   21.4  10.50 1.1877    116    1    100.0    5 
23/10/14  13:30   14.3   14.3   14.2    92   13.0  15.0    SW   1.25  17.0    SW   11.1   14.4   11.2  1019.7  0.00   0.0   0.014   0.000   21.8    57   12.9   21.4  10.50 1.1876    116    1    100.0    5 
23/10/14  13:35   14.3   14.3   14.3    93   13.2  15.0    SW   1.25  20.0   WSW   11.1   14.4   11.2  1019.8  0.00   0.0   0.014   0.000   21.8    57   12.9   21.4  10.50 1.1876    115    1    100.0    5 
23/10/14  13:40   14.2   14.3   14.2    93   13.1  17.0    SW   1.42  20.0    SW   10.7   14.3   10.8  1019.7  0.00   0.0   0.014   0.000   21.8    57   12.9   21.4  10.50 1.1876    115    1    100.0    5 
23/10/14  13:45   14.3   14.3   14.2    93   13.2  14.0    SW   1.17  17.0    SW   11.3   14.4   11.4  1019.6  0.00   0.0   0.014   0.000   21.8    57   12.9   21.4  10.50 1.1874    116    1    100.0    5 
23/10/14  13:50   14.4   14.4   14.3    93   13.3  15.0    SW   1.25  19.0    SW   11.2   14.5   11.3  1019.5  0.00   0.0   0.014   0.000   21.8    57   12.9   21.4  10.50 1.1874    117    1    100.0    5 
23/10/14  13:55   14.4   14.4   14.4    92   13.1  16.0    SW   1.33  20.0   WSW   11.1   14.5   11.2  1019.4  0.00   0.0   0.014   0.000   21.7    57   12.8   21.3  10.51 1.1875    115    1    100.0    5 
23/10/14  14:00   14.4   14.4   14.4    92   13.2  15.0    SW   1.25  20.0    SW   11.3   14.6   11.4  1019.4  0.00   0.0   0.014   0.000   21.7    57   12.8   21.3  10.51 1.1875    116    1    100.0    5 
23/10/14  14:05   14.4   14.4   14.4    93   13.3  16.0    SW   1.33  20.0   WSW   11.1   14.5   11.2  1019.4  0.00   0.0   0.014   0.000   21.7    57   12.8   21.3  10.51 1.1875    117    1    100.0    5 
23/10/14  14:10   14.4   14.4   14.4    93   13.3  17.0    SW   1.42  21.0    SW   10.9   14.5   11.0  1019.3  0.00   0.0   0.014   0.000   21.7    57   12.8   21.3  10.51 1.1874    116    1    100.0    5 
23/10/14  14:15   14.4   14.4   14.4    93   13.3  16.0    SW   1.33  21.0    SW   11.1   14.6   11.2  1019.3  0.00   0.0   0.014   0.000   21.7    57   12.8   21.3  10.51 1.1873    117    1    100.0    5 
23/10/14  14:20   14.5   14.5   14.4    93   13.4  17.0    SW   1.42  21.0    SW   11.0   14.6   11.1  1019.2  0.00   0.0   0.013   0.000   21.7    58   13.0   21.3  10.71 1.1873    115    1    100.0    5 
23/10/14  14:25   14.5   14.6   14.4    93   13.4  16.0    SW   1.33  21.0    SW   11.2   14.6   11.3  1019.3  0.00   0.0   0.013   0.000   21.7    58   13.0   21.3  10.71 1.1874    117    1    100.0    5 
23/10/14  14:30   14.3   14.5   14.3    93   13.2  17.0   WSW   1.42  23.0   WSW   10.8   14.4   10.9  1019.3  0.00   0.0   0.014   0.000   21.7    57   12.8   21.2  10.51 1.1877    115    1    100.0    5 
23/10/14  14:35   14.2   14.3   14.1    93   13.1  15.0   WSW   1.25  20.0   WSW   10.9   14.3   11.1  1019.3  0.00   0.0   0.014   0.000   21.7    57   12.8   21.2  10.51 1.1876    117    1    100.0    5 
23/10/14  14:40   14.2   14.2   14.2    94   13.2  16.0   WSW   1.33  19.0    SW   10.8   14.3   10.9  1019.2  0.00   0.0   0.014   0.000   21.7    57   12.8   21.2  10.51 1.1876    116    1    100.0    5 
23/10/14  14:45   14.2   14.2   14.2    94   13.2  15.0    SW   1.25  21.0    SW   10.9   14.3   11.1  1019.2  0.00   0.0   0.014   0.000   21.7    57   12.8   21.2  10.51 1.1875    117    1    100.0    5 
23/10/14  14:50   14.2   14.2   14.2    95   13.4  16.0    SW   1.33  20.0    SW   10.8   14.4   11.0  1019.2  0.00   0.0   0.014   0.000   21.7    58   13.0   21.3  10.71 1.1872    116    1    100.0    5 
23/10/14  14:55   14.3   14.3   14.2    95   13.5  16.0    SW   1.33  19.0    SW   10.9   14.4   11.1  1019.1  0.00   0.0   0.014   0.000   21.6    58   13.0   21.2  10.71 1.1874    117    1    100.0    5 
23/10/14  15:00   14.3   14.3   14.3    95   13.5  14.0    SW   1.17  17.0    SW   11.3   14.4   11.4  1019.1  0.00   0.0   0.014   0.000   21.6    58   13.0   21.2  10.71 1.1874    115    1    100.0    5 
23/10/14  15:05   14.2   14.3   14.2    95   13.4  17.0    SW   1.42  20.0    SW   10.7   14.4   10.8  1019.1  0.00   0.0   0.014   0.000   21.6    58   13.0   21.2  10.71 1.1874    117    1    100.0    5 
23/10/14  15:10   14.3   14.3   14.2    95   13.5  14.0    SW   1.17  18.0    SW   11.3   14.5   11.5  1019.1  0.00   0.0   0.014   0.000   21.6    58   13.0   21.2  10.71 1.1874    117    1    100.0    5 
23/10/14  15:15   14.3   14.3   14.3    95   13.5  15.0    SW   1.25  20.0   WSW   11.2   14.5   11.3  1019.1  0.00   0.0   0.014   0.000   21.6    58   13.0   21.2  10.71 1.1874    117    1    100.0    5 
23/10/14  15:20   14.3   14.3   14.3    95   13.5  17.0    SW   1.42  21.0    SW   10.7   14.4   10.9  1019.2  0.00   0.0   0.014   0.000   21.6    58   13.0   21.2  10.71 1.1875    116    1    100.0    5 
23/10/14  15:25   14.2   14.3   14.2    95   13.4  15.0    SW   1.25  19.0    SW   10.9   14.3   11.1  1019.1  0.00   0.0   0.014   0.000   21.6    58   13.0   21.2  10.71 1.1874    117    1    100.0    5 
23/10/14  15:30   14.2   14.2   14.2    95   13.4  13.0    SW   1.08  17.0    SW   11.4   14.4   11.6  1019.0  0.00   0.0   0.014   0.000   21.6    58   13.0   21.2  10.71 1.1873    116    1    100.0    5 
23/10/14  15:35   14.3   14.3   14.2    95   13.5  13.0    SW   1.08  18.0    SW   11.5   14.4   11.7  1019.0  0.00   0.0   0.014   0.000   21.6    58   13.0   21.2  10.71 1.1873    118    1    100.0    5 
23/10/14  15:40   14.3   14.3   14.3    95   13.5  15.0    SW   1.25  20.0    SW   11.2   14.5   11.3  1019.0  0.00   0.0   0.014   0.000   21.6    58   13.0   21.2  10.71 1.1873    116    1    100.0    5 
23/10/14  15:45   14.2   14.3   14.2    95   13.4  15.0    SW   1.25  21.0   WSW   11.0   14.4   11.2  1018.9  0.00   0.0   0.014   0.000   21.6    58   13.0   21.2  10.71 1.1872    117    1    100.0    5 
23/10/14  15:50   14.3   14.3   14.2    95   13.5  17.0    SW   1.42  21.0    SW   10.7   14.4   10.9  1018.9  0.00   0.0   0.014   0.000   21.6    58   13.0   21.2  10.71 1.1871    116    1    100.0    5 
23/10/14  15:55   14.3   14.3   14.3    95   13.5  17.0    SW   1.42  23.0   WSW   10.7   14.4   10.9  1018.8  0.00   0.0   0.014   0.000   21.6    58   13.0   21.2  10.71 1.1871    116    1    100.0    5 
23/10/14  16:00   14.2   14.3   14.2    95   13.4  16.0    SW   1.33  19.0    SW   10.8   14.4   11.0  1018.8  0.00   0.0   0.014   0.000   21.6    58   13.0   21.2  10.71 1.1870    117    1    100.0    5 
23/10/14  16:05   14.3   14.3   14.2    95   13.5  15.0    SW   1.25  18.0    SW   11.2   14.5   11.3  1018.8  0.00   0.0   0.014   0.000   21.7    58   13.0   21.3  10.71 1.1867    117    1    100.0    5 
23/10/14  16:10   14.4   14.4   14.3    95   13.6  17.0    SW   1.42  22.0    SW   10.9   14.6   11.1  1018.6  0.20   0.0   0.014   0.000   21.7    59   13.3   21.3  10.91 1.1862    115    1    100.0    5 
23/10/14  16:15   14.4   14.4   14.4    95   13.7  18.0    SW   1.50  22.0   WSW   10.8   14.6   10.9  1018.7  0.00   0.0   0.014   0.000   21.7    58   13.0   21.3  10.71 1.1866    117    1    100.0    5 
23/10/14  16:20   14.4   14.4   14.4    95   13.7  17.0    SW   1.42  21.0    SW   10.9   14.6   11.1  1018.6  0.00   0.0   0.014   0.000   21.7    58   13.0   21.3  10.71 1.1865    117    1    100.0    5 
23/10/14  16:25   14.5   14.5   14.4    95   13.7  18.0    SW   1.50  21.0   WSW   10.8   14.7   11.0  1018.6  0.00   0.0   0.013   0.000   21.7    58   13.0   21.3  10.71 1.1865    117    1    100.0    5 
23/10/14  16:30   14.5   14.5   14.5    94   13.5  15.0    SW   1.25  20.0    SW   11.3   14.7   11.5  1018.6  0.00   0.0   0.013   0.000   21.7    58   13.0   21.3  10.71 1.1865    117    1    100.0    5 
23/10/14  16:35   14.6   14.6   14.5    95   13.8  15.0    SW   1.25  19.0    SW   11.4   14.7   11.6  1018.4  0.00   0.0   0.013   0.000   21.7    58   13.0   21.3  10.71 1.1863    117    1    100.0    5 
23/10/14  16:40   14.6   14.6   14.6    95   13.8  13.0    SW   1.08  19.0    SW   11.8   14.7   11.9  1018.4  0.00   0.0   0.013   0.000   21.7    58   13.0   21.3  10.71 1.1862    117    1    100.0    5 
23/10/14  16:45   14.6   14.6   14.6    95   13.8  14.0    SW   1.17  19.0    SW   11.6   14.7   11.7  1018.3  0.00   0.0   0.013   0.000   21.7    58   13.0   21.3  10.71 1.1861    117    1    100.0    5 
23/10/14  16:50   14.6   14.6   14.6    94   13.6  15.0    SW   1.25  18.0    SW   11.4   14.7   11.6  1018.2  0.00   0.0   0.013   0.000   21.6    58   13.0   21.2  10.71 1.1864    116    1    100.0    5 
23/10/14  16:55   14.6   14.6   14.6    94   13.7  15.0    SW   1.25  18.0    SW   11.4   14.8   11.6  1018.2  0.00   0.0   0.013   0.000   21.7    58   13.0   21.3  10.71 1.1860    115    1    100.0    5 
23/10/14  17:00   14.7   14.7   14.6    95   13.9  16.0    SW   1.33  21.0   WSW   11.3   14.8   11.5  1018.1  0.00   0.0   0.013   0.000   21.6    58   13.0   21.2  10.71 1.1862    116    1    100.0    5 
23/10/14  17:05   14.6   14.7   14.6    95   13.8  14.0    SW   1.17  19.0    SW   11.7   14.8   11.8  1018.2  0.00   0.0   0.013   0.000   21.6    58   13.0   21.2  10.71 1.1863    117    1    100.0    5 
23/10/14  17:10   14.5   14.6   14.5    95   13.7  14.0    SW   1.17  19.0    SW   11.5   14.7   11.7  1018.1  0.00   0.0   0.013   0.000   21.6    58   13.0   21.2  10.71 1.1862    116    1    100.0    5 
23/10/14  17:15   14.6   14.6   14.5    95   13.8  13.0    SW   1.08  17.0    SW   11.8   14.7   11.9  1018.1  0.00   0.0   0.013   0.000   21.6    58   13.0   21.2  10.71 1.1862    116    1    100.0    5 
23/10/14  17:20   14.6   14.6   14.6    95   13.8  14.0    SW   1.17  18.0    SW   11.7   14.8   11.8  1018.0  0.00   0.0   0.013   0.000   21.6    58   13.0   21.2  10.71 1.1861    116    1    100.0    5 
23/10/14  17:25   14.7   14.7   14.6    95   13.9  15.0    SW   1.25  18.0    SW   11.5   14.8   11.7  1018.0  0.00   0.0   0.013   0.000   21.6    58   12.9   21.1  10.72 1.1863    117    1    100.0    5 
23/10/14  17:30   14.6   14.7   14.6    95   13.8  13.0    SW   1.08  18.0    SW   11.8   14.8   12.0  1017.9  0.00   0.0   0.013   0.000   21.6    59   13.3   21.3  10.91 1.1857    117    1    100.0    5 
23/10/14  17:35   14.7   14.7   14.6    95   13.9  14.0    SW   1.17  17.0    SW   11.7   14.8   11.9  1017.8  0.00   0.0   0.013   0.000   21.6    59   13.3   21.3  10.91 1.1856    117    1    100.0    5 
23/10/14  17:40   14.7   14.7   14.7    95   13.9  15.0    SW   1.25  18.0    SW   11.5   14.8   11.7  1017.9  0.00   0.0   0.013   0.000   21.6    60   13.5   21.3  11.03 1.1853    117    1    100.0    5 
23/10/14  17:45   14.7   14.7   14.7    95   13.9  13.0    SW   1.08  17.0    SW   11.9   14.8   12.1  1017.9  0.00   0.0   0.013   0.000   21.7    60   13.6   21.4  11.03 1.1850    117    1    100.0    5 
23/10/14  17:50   14.7   14.7   14.7    95   13.9  13.0    SW   1.08  18.0    SW   11.9   14.8   12.1  1017.9  0.00   0.0   0.013   0.000   21.7    61   13.9   21.5  11.21 1.1845    116    1    100.0    5 
23/10/14  17:55   14.7   14.7   14.7    95   13.9  11.0    SW   0.92  15.0    SW   12.5   14.8   12.7  1017.9  0.00   0.0   0.013   0.000   21.7    60   13.6   21.4  11.03 1.1848    117    1    100.0    5 
23/10/14  18:00   14.7   14.7   14.7    95   13.9  11.0    SW   0.92  14.0    SW   12.5   14.8   12.7  1017.9  0.00   0.0   0.013   0.000   21.8    60   13.7   21.6  11.03 1.1845    117    1    100.0    5 
23/10/14  18:05   14.7   14.7   14.7    95   13.9  13.0    SW   1.08  18.0    SW   12.0   14.9   12.2  1017.9  0.00   0.0   0.013   0.000   21.8    61   13.9   21.6  11.20 1.1842    116    1    100.0    5 
23/10/14  18:10   14.7   14.7   14.7    95   13.9  14.0    SW   1.17  17.0    SW   11.8   14.9   11.9  1017.9  0.00   0.0   0.013   0.000   21.8    61   14.0   21.7  11.20 1.1839    116    1    100.0    5 
23/10/14  18:15   14.7   14.7   14.7    95   13.9  12.0    SW   1.00  16.0    SW   12.3   14.9   12.4  1017.9  0.00   0.0   0.013   0.000   21.8    61   14.0   21.7  11.20 1.1839    115    1    100.0    5 
23/10/14  18:20   14.8   14.8   14.7    95   14.0  11.0    SW   0.92  14.0    SW   12.6   15.0   12.8  1017.9  0.00   0.0   0.012   0.000   21.8    61   14.0   21.7  11.20 1.1839    115    1    100.0    5 
23/10/14  18:25   14.8   14.8   14.8    95   14.0  11.0    SW   0.92  14.0    SW   12.6   15.0   12.8  1018.0  0.00   0.0   0.012   0.000   21.9    61   14.0   21.7  11.19 1.1837    117    1    100.0    5 
23/10/14  18:30   14.8   14.8   14.8    95   14.0  12.0    SW   1.00  15.0    SW   12.4   15.1   12.6  1017.9  0.00   0.0   0.012   0.000   21.9    61   14.0   21.7  11.19 1.1836    117    1    100.0    5 
23/10/14  18:35   14.9   14.9   14.8    95   14.1  11.0    SW   0.92  16.0    SW   12.8   15.1   13.0  1017.9  0.00   0.0   0.012   0.000   21.9    62   14.3   21.9  11.32 1.1830    116    1    100.0    5 
23/10/14  18:40   14.8   14.9   14.8    95   14.0  11.0    SW   0.92  16.0    SW   12.7   15.1   12.9  1018.0  0.00   0.0   0.012   0.000   22.0    61   14.1   21.9  11.19 1.1831    117    1    100.0    5 
23/10/14  18:45   14.8   14.8   14.8    95   14.0  11.0    SW   0.92  15.0    SW   12.7   15.1   12.9  1018.0  0.00   0.0   0.012   0.000   22.0    61   14.1   21.9  11.19 1.1832    118    1    100.0    5 
23/10/14  18:50   14.9   14.9   14.8    95   14.1  12.0    SW   1.00  15.0    SW   12.4   15.1   12.7  1018.1  0.00   0.0   0.012   0.000   22.1    61   14.2   22.0  11.18 1.1829    117    1    100.0    5 
23/10/14  18:55   14.9   14.9   14.8    95   14.1  15.0    SW   1.25  19.0    SW   11.8   15.1   12.0  1018.0  0.00   0.0   0.012   0.000   22.1    61   14.2   22.0  11.18 1.1829    116    1    100.0    5 
23/10/14  19:00   14.8   14.9   14.8    95   14.0  15.0    SW   1.25  18.0    SW   11.7   15.1   11.9  1018.0  0.00   0.0   0.012   0.000   22.1    61   14.2   22.1  11.18 1.1826    117    1    100.0    5 
23/10/14  19:05   14.8   14.8   14.8    95   14.0  14.0    SW   1.17  19.0    SW   11.9   15.1   12.1  1018.1  0.00   0.0   0.012   0.000   22.1    61   14.2   22.1  11.18 1.1827    117    1    100.0    5 
23/10/14  19:10   14.8   14.8   14.8    95   14.0  14.0    SW   1.17  17.0    SW   11.9   15.1   12.1  1018.1  0.00   0.0   0.012   0.000   22.1    61   14.2   22.1  11.18 1.1827    117    1    100.0    5 
23/10/14  19:15   14.8   14.8   14.8    95   14.0  16.0    SW   1.33  19.0    SW   11.6   15.1   11.8  1018.0  0.00   0.0   0.012   0.000   22.1    60   14.0   22.0  11.01 1.1829    117    1    100.0    5 
23/10/14  19:20   14.9   14.9   14.8    95   14.1  15.0    SW   1.25  18.0   WSW   11.8   15.1   12.0  1018.0  0.00   0.0   0.012   0.000   22.2    61   14.3   22.1  11.17 1.1823    117    1    100.0    5 
23/10/14  19:25   14.8   14.9   14.8    94   13.9  14.0    SW   1.17  18.0    SW   11.9   15.0   12.1  1018.0  0.00   0.0   0.012   0.000   22.2    62   14.5   22.2  11.31 1.1820    117    1    100.0    5 
23/10/14  19:30   14.8   14.9   14.8    95   14.0  15.0    SW   1.25  20.0   WSW   11.7   15.1   11.9  1018.1  0.00   0.0   0.012   0.000   22.2    61   14.3   22.2  11.17 1.1821    117    1    100.0    5 
23/10/14  19:35   14.9   14.9   14.8    94   13.9  15.0    SW   1.25  19.0    SW   11.8   15.1   11.9  1018.1  0.00   0.0   0.012   0.000   22.2    61   14.3   22.2  11.17 1.1821    116    1    100.0    5 
23/10/14  19:40   14.9   14.9   14.9    94   14.0  15.0    SW   1.25  19.0    SW   11.8   15.2   12.1  1018.0  0.00   0.0   0.012   0.000   22.2    61   14.3   22.2  11.17 1.1820    116    1    100.0    5 
23/10/14  19:45   14.9   15.0   14.9    94   14.0  16.0    SW   1.33  19.0    SW   11.7   15.2   11.9  1018.0  0.00   0.0   0.012   0.000   22.2    62   14.6   22.3  11.31 1.1817    117    1    100.0    5 
23/10/14  19:50   14.9   15.0   14.9    94   14.0  16.0    SW   1.33  19.0    SW   11.7   15.2   11.9  1018.0  0.00   0.0   0.012   0.000   22.2    63   14.8   22.3  11.51 1.1814    118    1    100.0    5 
23/10/14  19:55   14.9   15.0   14.9    94   14.0  15.0    SW   1.25  18.0    SW   11.8   15.2   12.1  1018.0  0.00   0.0   0.012   0.000   22.3    63   14.9   22.4  11.51 1.1810    116    1    100.0    5 
23/10/14  20:00   14.9   14.9   14.9    94   14.0  17.0    SW   1.42  22.0   WSW   11.5   15.2   11.7  1017.9  0.00   0.0   0.012   0.000   22.3    63   14.9   22.4  11.51 1.1810    117    1    100.0    5 
23/10/14  20:05   14.8   14.9   14.7    95   14.0  16.0   WSW   1.33  23.0   WSW   11.5   15.0   11.7  1018.0  0.00   0.0   0.012   0.000   22.3    63   14.9   22.4  11.51 1.1811    116    1    100.0    5 
23/10/14  20:10   14.7   14.7   14.7    95   13.9  16.0   WSW   1.33  20.0   WSW   11.3   14.8   11.5  1018.0  0.00   0.0   0.013   0.000   22.3    63   14.9   22.4  11.51 1.1808    115    1    100.0    5 
23/10/14  20:15   14.7   14.7   14.7    95   13.9  15.0   WSW   1.25  17.0   WSW   11.6   14.9   11.8  1018.0  0.00   0.0   0.013   0.000   22.3    63   14.9   22.4  11.51 1.1808    115    1    100.0    5 
23/10/14  20:20   14.7   14.7   14.7    95   13.9  13.0   WSW   1.08  16.0   WSW   12.0   14.9   12.2  1018.0  0.00   0.0   0.013   0.000   22.3    63   14.9   22.4  11.51 1.1808    117    1    100.0    5 
23/10/14  20:25   14.7   14.7   14.7    95   13.9  12.0   WSW   1.00  14.0   WSW   12.3   14.9   12.4  1018.0  0.00   0.0   0.013   0.000   22.4    63   15.0   22.6  11.50 1.1805    117    1    100.0    5 
23/10/14  20:30   14.7   14.7   14.7    95   13.9  10.0   WSW   0.83  12.0   WSW   12.9   14.9   13.1  1018.0  0.00   0.0   0.013   0.000   22.4    63   15.0   22.6  11.50 1.1805    116    1    100.0    5 
23/10/14  20:35   14.8   14.8   14.7    96   14.1  10.0    SW   0.83  12.0    SW   12.9   15.0   13.2  1018.0  0.00   0.0   0.012   0.000   22.4    63   15.0   22.6  11.50 1.1805    117    1    100.0    5 
23/10/14  20:40   14.8   14.8   14.8    95   14.0  11.0    SW   0.92  15.0    SW   12.6   15.0   12.8  1018.0  0.00   0.0   0.012   0.000   22.4    63   15.0   22.6  11.50 1.1805    116    1    100.0    5 
23/10/14  20:45   14.8   14.9   14.8    95   14.0  13.0    SW   1.08  17.0   WSW   12.1   15.1   12.3  1018.1  0.00   0.0   0.012   0.000   22.4    63   15.1   22.6  11.50 1.1803    116    1    100.0    5 
23/10/14  20:50   14.8   14.9   14.8    95   14.0  13.0   WSW   1.08  17.0   WSW   12.1   15.1   12.3  1018.1  0.00   0.0   0.012   0.000   22.5    63   15.1   22.7  11.50 1.1800    117    1    100.0    5 
23/10/14  20:55   14.8   14.8   14.8    95   14.0  11.0   WSW   0.92  14.0   WSW   12.6   15.0   12.8  1017.9  0.00   0.0   0.012   0.000   22.5    63   15.1   22.7  11.50 1.1798    117    1    100.0    5 
23/10/14  21:00   14.8   14.8   14.8    95   14.0  11.0   WSW   0.92  14.0   WSW   12.7   15.1   12.9  1017.9  0.00   0.0   0.012   0.000   22.5    63   15.1   22.7  11.50 1.1798    117    1    100.0    5 
23/10/14  21:05   14.8   14.8   14.8    95   14.0  11.0   WSW   0.92  14.0   WSW   12.7   15.1   12.9  1017.9  0.00   0.0   0.012   0.000   22.6    63   15.2   22.8  11.50 1.1795    117    1    100.0    5 
23/10/14  21:10   14.8   14.8   14.8    95   14.0  10.0   WSW   0.83  13.0    SW   13.0   15.1   13.2  1017.8  0.00   0.0   0.012   0.000   22.6    63   15.2   22.8  11.50 1.1794    117    1    100.0    5 
23/10/14  21:15   14.8   14.8   14.8    95   14.0  12.0    SW   1.00  15.0    SW   12.4   15.1   12.6  1017.8  0.00   0.0   0.012   0.000   22.6    63   15.2   22.8  11.50 1.1791    117    1    100.0    5 
23/10/14  21:20   14.8   14.9   14.8    95   14.0  13.0    SW   1.08  15.0    SW   12.1   15.1   12.3  1017.8  0.00   0.0   0.012   0.000   22.6    64   15.5   22.9  11.65 1.1788    117    1    100.0    5 
23/10/14  21:25   14.9   14.9   14.8    95   14.1  13.0    SW   1.08  17.0    SW   12.2   15.1   12.4  1017.8  0.00   0.0   0.012   0.000   22.7    64   15.5   23.0  11.65 1.1785    117    1    100.0    5 
23/10/14  21:30   14.9   14.9   14.9    95   14.2  14.0    SW   1.17  17.0    SW   12.1   15.2   12.3  1017.8  0.00   0.0   0.012   0.000   22.7    64   15.5   23.0  11.65 1.1785    117    1    100.0    5 
23/10/14  21:35   15.0   15.0   14.9    95   14.2  14.0    SW   1.17  16.0    SW   12.1   15.2   12.3  1017.8  0.00   0.0   0.012   0.000   22.7    64   15.6   23.1  11.65 1.1782    116    1    100.0    5 
23/10/14  21:40   15.0   15.0   15.0    95   14.2  14.0    SW   1.17  16.0    SW   12.1   15.2   12.3  1017.7  0.00   0.0   0.012   0.000   22.8    64   15.6   23.1  11.65 1.1778    117    1    100.0    5 
23/10/14  21:45   15.0   15.0   15.0    95   14.2  13.0    SW   1.08  17.0   WSW   12.3   15.2   12.5  1017.7  0.00   0.0   0.012   0.000   22.8    64   15.6   23.1  11.65 1.1778    117    1    100.0    5 
23/10/14  21:50   15.0   15.1   15.0    95   14.2  14.0    SW   1.17  17.0    SW   12.1   15.2   12.3  1017.6  0.00   0.0   0.012   0.000   22.8    64   15.7   23.2  11.65 1.1775    116    1    100.0    5 
23/10/14  21:55   14.9   15.0   14.9    95   14.2  13.0   WSW   1.08  17.0    SW   12.2   15.2   12.4  1017.6  0.00   0.0   0.012   0.000   22.8    64   15.7   23.2  11.65 1.1774    117    1    100.0    5 
23/10/14  22:00   14.9   14.9   14.9    94   13.9  12.0   WSW   1.00  16.0   WSW   12.4   15.1   12.6  1017.5  0.00   0.0   0.012   0.000   22.9    64   15.7   23.3  11.65 1.1770    117    1    100.0    5 
23/10/14  22:05   14.9   14.9   14.9    95   14.2  13.0   WSW   1.08  20.0   WSW   12.2   15.2   12.4  1017.5  0.00   0.0   0.012   0.000   22.9    64   15.7   23.3  11.65 1.1770    116    1    100.0    5 
23/10/14  22:10   14.9   14.9   14.9    95   14.2  15.0   WSW   1.25  20.0   WSW   11.8   15.2   12.1  1017.4  0.00   0.0   0.012   0.000   22.9    64   15.7   23.3  11.65 1.1769    116    1    100.0    5 
23/10/14  22:15   14.7   14.9   14.7    94   13.8  18.0   WSW   1.50  23.0   WSW   11.1   14.9   11.3  1017.4  0.00   0.0   0.013   0.000   22.9    63   15.5   23.3  11.49 1.1772    116    1    100.0    5 
23/10/14  22:20   14.7   14.7   14.7    95   13.9  18.0   WSW   1.50  22.0   WSW   11.0   14.8   11.2  1017.4  0.00   0.0   0.013   0.000   22.9    63   15.5   23.3  11.49 1.1772    117    1    100.0    5 
23/10/14  22:25   14.7   14.7   14.7    95   13.9  18.0    SW   1.50  22.0    SW   11.1   14.9   11.3  1017.3  0.00   0.0   0.013   0.000   22.9    63   15.5   23.3  11.49 1.1771    117    1    100.0    5 
23/10/14  22:30   14.7   14.7   14.7    95   13.9  17.0    SW   1.42  22.0    SW   11.3   14.9   11.4  1017.3  0.00   0.0   0.013   0.000   22.9    63   15.5   23.3  11.49 1.1771    115    1    100.0    5 
23/10/14  22:35   14.7   14.7   14.6    95   13.9  14.0    SW   1.17  18.0    SW   11.7   14.8   11.9  1017.2  0.00   0.0   0.013   0.000   22.9    63   15.5   23.3  11.49 1.1770    117    1    100.0    5 
23/10/14  22:40   14.7   14.7   14.6    95   13.9  14.0    SW   1.17  18.0    SW   11.8   14.9   11.9  1017.2  0.20   0.0   0.013   0.000   22.9    64   15.8   23.4  11.65 1.1763    117    1    100.0    5 
23/10/14  22:45   14.8   14.8   14.7    95   14.0  14.0    SW   1.17  18.0    SW   11.9   15.1   12.1  1017.2  0.00   0.0   0.012   0.000   22.9    64   15.8   23.4  11.65 1.1763    116    1    100.0    5 
23/10/14  22:50   14.9   14.9   14.8    95   14.2  15.0    SW   1.25  19.0    SW   11.8   15.2   12.1  1017.2  0.00   0.0   0.012   0.000   22.9    64   15.8   23.4  11.65 1.1763    116    1    100.0    5 
23/10/14  22:55   14.9   14.9   14.9    95   14.1  14.0    SW   1.17  18.0    SW   12.0   15.1   12.2  1017.2  0.00   0.0   0.012   0.000   22.9    63   15.5   23.3  11.48 1.1766    116    1    100.0    5 
23/10/14  23:00   14.9   14.9   14.9    95   14.2  13.0    SW   1.08  18.0    SW   12.2   15.2   12.4  1017.1  0.00   0.0   0.012   0.000   22.9    63   15.5   23.3  11.48 1.1766    118    1    100.0    5 
23/10/14  23:05   14.9   14.9   14.9    95   14.2  13.0    SW   1.08  19.0    SW   12.2   15.2   12.4  1017.1  0.00   0.0   0.012   0.000   22.9    63   15.5   23.3  11.48 1.1765    116    1    100.0    5 
23/10/14  23:10   14.9   15.0   14.9    95   14.2  13.0    SW   1.08  20.0    SW   12.2   15.2   12.4  1017.0  0.00   0.0   0.012   0.000   22.9    64   15.8   23.4  11.65 1.1761    117    1    100.0    5 
23/10/14  23:15   14.8   14.9   14.8    95   14.0  17.0    SW   1.42  21.0    SW   11.4   15.1   11.6  1017.0  0.00   0.0   0.012   0.000   22.9    63   15.5   23.3  11.48 1.1764    116    1    100.0    5 
23/10/14  23:20   14.8   14.8   14.8    95   14.0  15.0    SW   1.25  19.0    SW   11.7   15.0   11.9  1017.0  0.00   0.0   0.012   0.000   22.9    63   15.5   23.3  11.48 1.1764    117    1    100.0    5 
23/10/14  23:25   14.8   14.8   14.8    96   14.1  14.0    SW   1.17  17.0    SW   11.8   15.0   12.1  1016.9  0.00   0.0   0.012   0.000   22.9    63   15.5   23.3  11.48 1.1763    117    1    100.0    5 
23/10/14  23:30   14.8   14.8   14.8    96   14.1  11.0    SW   0.92  14.0    SW   12.6   15.0   12.8  1016.9  0.00   0.0   0.012   0.000   22.9    63   15.5   23.3  11.48 1.1763    117    1    100.0    5 
23/10/14  23:35   14.8   14.8   14.8    96   14.2  12.0    SW   1.00  15.0    SW   12.4   15.1   12.6  1016.9  0.00   0.0   0.012   0.000   22.9    63   15.5   23.3  11.48 1.1763    116    1    100.0    5 
23/10/14  23:40   14.8   14.8   14.8    96   14.2  14.0   WSW   1.17  19.0    SW   11.9   15.1   12.1  1016.9  0.00   0.0   0.012   0.000   22.9    63   15.5   23.3  11.48 1.1763    116    1    100.0    5 
23/10/14  23:45   14.8   14.8   14.8    96   14.2  15.0    SW   1.25  19.0   WSW   11.7   15.1   11.9  1016.9  0.00   0.0   0.012   0.000   22.9    63   15.5   23.3  11.48 1.1763    116    1    100.0    5 
23/10/14  23:50   14.8   14.8   14.8    96   14.2  16.0    SW   1.33  21.0   WSW   11.6   15.1   11.8  1016.9  0.00   0.0   0.012   0.000   22.9    63   15.5   23.3  11.48 1.1763    117    1    100.0    5 
23/10/14  23:55   14.8   14.8   14.8    96   14.1  17.0    SW   1.42  22.0    SW   11.3   15.0   11.6  1016.9  0.00   0.0   0.012   0.000   22.9    63   15.5   23.3  11.48 1.1763    117    1    100.0    5 
24/10/14  00:00   14.8   14.8   14.8    96   14.1  17.0    SW   1.42  21.0    SW   11.3   15.0   11.6  1016.8  0.00   0.0   0.012   0.000   22.9    63   15.5   23.3  11.48 1.1762    116    1    100.0    5 
24/10/14   0:05   14.8   14.8   14.8    96   14.1  16.0    SW   1.33  20.0   WSW   11.5   15.0   11.7  1016.8  0.00   0.0   0.012   0.000   22.9    63   15.5   23.3  11.48 1.1762    115    1    100.0    5 
24/10/14   0:10   14.6   14.8   14.6    96   14.0  16.0   WSW   1.33  20.0   WSW   11.3   14.8   11.4  1016.8  0.00   0.0   0.013   0.000   22.9    63   15.5   23.3  11.48 1.1762    115    1    100.0    5 
24/10/14   0:15   14.6   14.6   14.5    96   13.9  13.0   WSW   1.08  16.0    SW   11.8   14.7   11.9  1016.7  0.00   0.0   0.013   0.000   22.9    63   15.5   23.3  11.49 1.1764    116    1    100.0    5 
24/10/14   0:20   14.5   14.6   14.5    96   13.9  13.0   WSW   1.08  16.0   WSW   11.7   14.7   11.9  1016.6  0.00   0.0   0.013   0.000   22.9    63   15.5   23.3  11.48 1.1760    116    1    100.0    5 
24/10/14   0:25   14.5   14.5   14.5    96   13.9  14.0   WSW   1.17  19.0   WSW   11.5   14.7   11.7  1016.7  0.00   0.0   0.013   0.000   22.9    63   15.5   23.3  11.48 1.1761    118    1    100.0    5 
24/10/14   0:30   14.5   14.5   14.5    96   13.9  14.0    SW   1.17  18.0    SW   11.5   14.7   11.7  1016.7  0.00   0.0   0.013   0.000   22.9    63   15.5   23.3  11.49 1.1764    117    1    100.0    5 
24/10/14   0:35   14.4   14.5   14.4    96   13.8  15.0    SW   1.25  18.0    SW   11.3   14.6   11.4  1016.7  0.00   0.0   0.014   0.000   22.9    63   15.5   23.3  11.49 1.1764    117    1    100.0    5 
24/10/14   0:40   14.5   14.5   14.4    97   14.0  14.0    SW   1.17  17.0    SW   11.5   14.7   11.7  1016.7  0.00   0.0   0.013   0.000   22.9    63   15.5   23.3  11.49 1.1764    117    1    100.0    5 
24/10/14   0:45   14.6   14.6   14.5    96   13.9  13.0    SW   1.08  17.0    SW   11.8   14.7   11.9  1016.7  0.00   0.0   0.013   0.000   22.9    63   15.5   23.3  11.49 1.1764    117    1    100.0    5 
24/10/14   0:50   14.6   14.6   14.6    96   13.9  13.0    SW   1.08  17.0    SW   11.8   14.7   11.9  1016.7  0.00   0.0   0.013   0.000   22.9    63   15.5   23.3  11.49 1.1763    117    1    100.0    5 
24/10/14   0:55   14.6   14.6   14.6    96   14.0  13.0    SW   1.08  15.0    SW   11.8   14.8   12.0  1016.6  0.00   0.0   0.013   0.000   22.8    63   15.4   23.2  11.49 1.1766    117    1    100.0    5 
24/10/14   1:00   14.6   14.6   14.6    96   14.0  13.0    SW   1.08  15.0    SW   11.8   14.8   12.0  1016.6  0.00   0.0   0.013   0.000   22.8    63   15.4   23.2  11.49 1.1765    117    1    100.0    5 
24/10/14   1:05   14.7   14.7   14.6    96   14.0  12.0    SW   1.00  14.0    SW   12.2   14.9   12.4  1016.6  0.00   0.0   0.013   0.000   22.8    63   15.4   23.2  11.49 1.1765    117    1    100.0    5 
24/10/14   1:10   14.7   14.7   14.7    96   14.1  12.0    SW   1.00  15.0    SW   12.3   14.9   12.5  1016.6  0.00   0.0   0.013   0.000   22.8    63   15.4   23.2  11.49 1.1765    116    1    100.0    5 
24/10/14   1:15   14.7   14.7   14.7    96   14.1  13.0    SW   1.08  15.0    SW   12.0   14.9   12.2  1016.6  0.00   0.0   0.013   0.000   22.8    63   15.4   23.2  11.49 1.1765    116    1    100.0    5 
24/10/14   1:20   14.8   14.8   14.7    96   14.1  12.0    SW   1.00  16.0    SW   12.3   15.0   12.6  1016.5  0.00   0.0   0.012   0.000   22.8    63   15.4   23.2  11.49 1.1765    113    1     99.1    5 
24/10/14   1:25   14.7   14.8   14.7    96   14.1  12.0   WSW   1.00  14.0    SW   12.3   14.9   12.5  1016.5  0.00   0.0   0.013   0.000   22.8    63   15.4   23.2  11.49 1.1764    116    1    100.0    5 
24/10/14   1:30   14.7   14.8   14.7    96   14.1  12.0   WSW   1.00  15.0   WSW   12.3   14.9   12.5  1016.4  0.00   0.0   0.013   0.000   22.8    63   15.4   23.2  11.49 1.1763    117    1    100.0    5 
24/10/14   1:35   14.7   14.7   14.7    95   13.9  13.0   WSW   1.08  16.0   WSW   11.9   14.8   12.1  1016.4  0.00   0.0   0.013   0.000   22.8    62   15.2   23.2  11.29 1.1766    117    1    100.0    5 
24/10/14   1:40   14.7   14.7   14.7    95   13.9  12.0   WSW   1.00  15.0   WSW   12.2   14.8   12.3  1016.3  0.00   0.0   0.013   0.000   22.8    62   15.2   23.2  11.29 1.1765    116    1    100.0    5 
24/10/14   1:45   14.7   14.7   14.7    95   13.9  13.0   WSW   1.08  15.0   WSW   11.9   14.8   12.1  1016.3  0.00   0.0   0.013   0.000   22.8    62   15.2   23.2  11.29 1.1765    117    1    100.0    5 
24/10/14   1:50   14.7   14.7   14.7    95   13.9  11.0   WSW   0.92  16.0    SW   12.5   14.8   12.7  1016.2  0.00   0.0   0.013   0.000   22.8    62   15.2   23.2  11.29 1.1764    117    1    100.0    5 
24/10/14   1:55   14.7   14.7   14.7    95   13.9  11.0   WSW   0.92  14.0   WSW   12.5   14.8   12.7  1016.2  0.00   0.0   0.013   0.000   22.8    62   15.1   23.1  11.29 1.1767    116    1    100.0    5 
24/10/14   2:00   14.7   14.7   14.7    95   13.9  11.0   WSW   0.92  15.0   WSW   12.6   14.9   12.7  1016.2  0.00   0.0   0.013   0.000   22.8    62   15.2   23.2  11.29 1.1764    116    1    100.0    5 
24/10/14   2:05   14.7   14.7   14.7    95   13.9  11.0   WSW   0.92  13.0   WSW   12.6   14.9   12.7  1016.2  0.00   0.0   0.013   0.000   22.8    62   15.1   23.1  11.29 1.1766    117    1    100.0    5 
24/10/14   2:10   14.7   14.7   14.7    95   13.9  11.0   WSW   0.92  14.0    SW   12.5   14.8   12.7  1016.2  0.20   0.0   0.013   0.000   22.8    62   15.1   23.1  11.29 1.1767    116    1    100.0    5 
24/10/14   2:15   14.7   14.7   14.7    95   13.9  11.0   WSW   0.92  14.0   WSW   12.5   14.8   12.7  1016.2  0.00   0.0   0.013   0.000   22.8    62   15.1   23.1  11.29 1.1766    117    1    100.0    5 
24/10/14   2:20   14.7   14.7   14.6    95   13.9  12.0   WSW   1.00  15.0   WSW   12.2   14.8   12.3  1016.2  0.00   0.0   0.013   0.000   22.7    62   15.1   23.0  11.29 1.1769    116    1    100.0    5 
24/10/14   2:25   14.7   14.7   14.7    95   13.9  10.0   WSW   0.83  12.0   WSW   12.8   14.8   13.0  1016.1  0.00   0.0   0.013   0.000   22.8    62   15.1   23.1  11.29 1.1766    115    1    100.0    5 
24/10/14   2:30   14.7   14.7   14.7    95   13.9  10.0   WSW   0.83  12.0   WSW   12.9   14.9   13.1  1016.0  0.00   0.0   0.013   0.000   22.7    62   15.1   23.0  11.29 1.1768    117    1    100.0    5 
24/10/14   2:35   14.7   14.7   14.7    95   13.9  10.0    SW   0.83  13.0    SW   12.9   14.9   13.1  1016.0  0.00   0.0   0.013   0.000   22.7    62   15.1   23.0  11.29 1.1767    116    1    100.0    5 
24/10/14   2:40   14.8   14.8   14.7    95   14.0   9.0   WSW   0.75  11.0   WSW   13.3   15.0   13.6  1016.0  0.00   0.0   0.012   0.000   22.7    62   15.1   23.0  11.29 1.1767    117    1    100.0    5 
24/10/14   2:45   14.8   14.8   14.8    95   14.0   9.0   WSW   0.75  11.0   WSW   13.3   15.0   13.6  1016.0  0.00   0.0   0.012   0.000   22.7    62   15.1   23.0  11.29 1.1767    117    1    100.0    5 
24/10/14   2:50   14.8   14.8   14.8    95   14.0   9.0   WSW   0.75  11.0    SW   13.3   15.0   13.6  1015.9  0.00   0.0   0.012   0.000   22.7    62   15.1   23.0  11.29 1.1766    117    1    100.0    5 
24/10/14   2:55   14.7   14.8   14.7    95   13.9   9.0   WSW   0.75  11.0   WSW   13.3   14.9   13.4  1015.8  0.00   0.0   0.013   0.000   22.7    62   15.1   23.0  11.29 1.1765    117    1    100.0    5 
24/10/14   3:00   14.7   14.7   14.7    95   13.9  10.0   WSW   0.83  12.0   WSW   12.9   14.9   13.1  1015.8  0.00   0.0   0.013   0.000   22.7    62   15.1   23.0  11.29 1.1765    116    1    100.0    5 
24/10/14   3:05   14.7   14.7   14.7    95   13.9  11.0   WSW   0.92  14.0    SW   12.5   14.8   12.7  1015.9  0.00   0.0   0.013   0.000   22.7    62   15.1   23.0  11.29 1.1766    117    1    100.0    5 
24/10/14   3:10   14.6   14.7   14.6    95   13.8  10.0   WSW   0.83  12.0   WSW   12.8   14.8   12.9  1015.8  0.00   0.0   0.013   0.000   22.7    62   15.1   23.0  11.29 1.1765    117    1    100.0    5 
24/10/14   3:15   14.6   14.6   14.6    95   13.8   8.0   WSW   0.67  11.0   WSW   13.6   14.8   13.8  1015.8  0.00   0.0   0.013   0.000   22.7    62   15.1   23.0  11.29 1.1765    117    1    100.0    5 
24/10/14   3:20   14.6   14.6   14.6    95   13.8   7.0   WSW   0.58  10.0   WSW   14.0   14.8   14.2  1015.8  0.00   0.0   0.013   0.000   22.7    62   15.1   23.0  11.29 1.1765    115    1    100.0    5 
24/10/14   3:25   14.6   14.6   14.6    95   13.8   6.0   WSW   0.50  10.0   WSW   14.2   14.8   14.4  1015.6  0.00   0.0   0.013   0.000   22.7    62   15.0   22.9  11.29 1.1766    114    1    100.0    5 
24/10/14   3:30   14.6   14.6   14.6    95   13.8   4.0     W   0.33   7.0   WSW   14.6   14.7   14.7  1015.6  0.00   0.0   0.013   0.000   22.7    62   15.0   22.9  11.29 1.1766    117    1    100.0    5 
24/10/14   3:35   14.6   14.6   14.5    95   13.8   5.0   WSW   0.42   9.0   WSW   14.3   14.7   14.5  1015.6  0.00   0.0   0.013   0.000   22.7    62   15.0   22.9  11.29 1.1765    118    1    100.0    5 
24/10/14   3:40   14.6   14.6   14.5    95   13.8   8.0   WSW   0.67  10.0   WSW   13.5   14.7   13.7  1015.5  0.00   0.0   0.013   0.000   22.7    62   15.0   22.9  11.29 1.1765    117    1    100.0    5 
24/10/14   3:45   14.7   14.7   14.6    95   13.9   9.0   WSW   0.75  12.0   WSW   13.2   14.8   13.4  1015.4  0.00   0.0   0.013   0.000   22.7    62   15.0   22.9  11.29 1.1763    114    1    100.0    5 
24/10/14   3:50   14.6   14.7   14.6    95   13.8   5.0     W   0.42   9.0   WSW   14.4   14.8   14.6  1015.4  0.00   0.0   0.013   0.000   22.7    62   15.0   22.9  11.29 1.1763    115    1    100.0    5 
24/10/14   3:55   14.6   14.6   14.6    95   13.8   5.0     W   0.42   9.0   WNW   14.3   14.7   14.5  1015.3  0.00   0.0   0.013   0.000   22.7    62   15.0   22.9  11.29 1.1763    116    1    100.0    5 
24/10/14   4:00   14.6   14.6   14.6    95   13.8   7.0     W   0.58  10.0   WSW   13.9   14.7   14.1  1015.3  0.00   0.0   0.013   0.000   22.7    62   15.0   22.9  11.29 1.1762    117    1    100.0    5 
24/10/14   4:05   14.5   14.6   14.5    95   13.7   8.0   WSW   0.67  11.0   WSW   13.4   14.7   13.6  1015.3  0.00   0.0   0.013   0.000   22.7    62   15.0   22.9  11.29 1.1763    116    1    100.0    5 
24/10/14   4:10   14.5   14.5   14.4    96   13.9  10.0   WSW   0.83  14.0    SW   12.6   14.7   12.8  1015.3  0.00   0.0   0.013   0.000   22.7    62   15.0   22.9  11.29 1.1762    117    1    100.0    5 
24/10/14   4:15   14.4   14.5   14.4    96   13.8  10.0   WSW   0.83  13.0   WSW   12.6   14.6   12.7  1015.3  0.00   0.0   0.014   0.000   22.7    62   15.0   22.9  11.29 1.1762    117    1    100.0    5 
24/10/14   4:20   14.4   14.4   14.4    96   13.8   9.0   WSW   0.75  12.0    SW   12.9   14.6   13.1  1015.3  0.00   0.0   0.014   0.000   22.7    62   15.0   22.9  11.29 1.1762    117    1    100.0    5 
24/10/14   4:25   14.4   14.4   14.4    96   13.8  10.0   WSW   0.83  13.0   WSW   12.6   14.6   12.7  1015.3  0.00   0.0   0.014   0.000   22.6    62   15.0   22.8  11.30 1.1766    116    1    100.0    5 
24/10/14   4:30   14.4   14.4   14.4    96   13.8  10.0   WSW   0.83  13.0    SW   12.6   14.6   12.7  1015.3  0.00   0.0   0.014   0.000   22.6    62   15.0   22.8  11.30 1.1765    117    1    100.0    5 
24/10/14   4:35   14.5   14.5   14.4    96   13.9  10.0   WSW   0.83  12.0   WSW   12.6   14.7   12.8  1015.4  0.00   0.0   0.013   0.000   22.6    62   15.0   22.8  11.30 1.1766    117    1    100.0    5 
24/10/14   4:40   14.5   14.5   14.4    96   13.9  10.0   WSW   0.83  13.0   WSW   12.6   14.7   12.8  1015.4  0.00   0.0   0.013   0.000   22.6    62   15.0   22.8  11.30 1.1766    117    1    100.0    5 
24/10/14   4:45   14.5   14.5   14.4    96   13.9  10.0   WSW   0.83  12.0   WSW   12.6   14.7   12.8  1015.3  0.00   0.0   0.013   0.000   22.6    62   15.0   22.8  11.30 1.1766    117    1    100.0    5 
24/10/14   4:50   14.5   14.5   14.4    96   13.9   8.0   WSW   0.67  11.0   WSW   13.4   14.7   13.6  1015.3  0.00   0.0   0.013   0.000   22.6    62   15.0   22.8  11.30 1.1765    116    1    100.0    5 
24/10/14   4:55   14.5   14.5   14.5    96   13.9   8.0   WSW   0.67  10.0   WSW   13.4   14.7   13.6  1015.3  0.00   0.0   0.013   0.000   22.6    62   15.0   22.8  11.30 1.1765    117    1    100.0    5 
24/10/14   5:00   14.5   14.5   14.5    96   13.9   7.0    SW   0.58  10.0   WSW   13.8   14.7   14.0  1015.2  0.00   0.0   0.013   0.000   22.6    62   15.0   22.8  11.30 1.1764    117    1    100.0    5 
24/10/14   5:05   14.5   14.5   14.5    96   13.9   7.0    SW   0.58   9.0   WSW   13.8   14.7   14.0  1015.2  0.00   0.0   0.013   0.000   22.6    62   14.9   22.7  11.30 1.1766    117    1    100.0    5 
24/10/14   5:10   14.6   14.6   14.5    96   13.9   8.0    SW   0.67   9.0   WSW   13.5   14.7   13.7  1015.1  0.00   0.0   0.013   0.000   22.6    62   14.9   22.7  11.30 1.1766    117    1    100.0    5 
24/10/14   5:15   14.6   14.6   14.5    96   13.9   8.0    SW   0.67  11.0    SW   13.5   14.7   13.7  1015.1  0.00   0.0   0.013   0.000   22.6    62   14.9   22.7  11.30 1.1766    117    1    100.0    5 
24/10/14   5:20   14.6   14.6   14.5    96   13.9   9.0    SW   0.75  11.0    SW   13.1   14.7   13.2  1015.1  0.00   0.0   0.013   0.000   22.6    62   14.9   22.7  11.30 1.1765    117    1    100.0    5 
24/10/14   5:25   14.5   14.6   14.5    96   13.9   9.0    SW   0.75  10.0   WSW   13.0   14.7   13.2  1015.1  0.00   0.0   0.013   0.000   22.6    62   14.9   22.7  11.30 1.1766    117    1    100.0    5 
24/10/14   5:30   14.6   14.6   14.5    96   13.9   9.0    SW   0.75  11.0    SW   13.1   14.7   13.2  1015.1  0.00   0.0   0.013   0.000   22.6    62   14.9   22.7  11.30 1.1766    116    1    100.0    5 
24/10/14   5:35   14.6   14.6   14.6    96   14.0   8.0    SW   0.67  11.0    SW   13.6   14.8   13.8  1015.1  0.00   0.0   0.013   0.000   22.6    62   14.9   22.7  11.30 1.1766    117    1    100.0    5 
24/10/14   5:40   14.7   14.7   14.6    96   14.0   8.0    SW   0.67  11.0    SW   13.7   14.9   13.9  1015.1  0.00   0.0   0.013   0.000   22.5    62   14.9   22.7  11.30 1.1769    116    1    100.0    5 
24/10/14   5:45   14.6   14.7   14.6    96   14.0   9.0    SW   0.75  11.0   WSW   13.2   14.8   13.3  1015.1  0.00   0.0   0.013   0.000   22.5    62   14.9   22.7  11.30 1.1768    118    1    100.0    5 
24/10/14   5:50   14.6   14.6   14.6    96   14.0   9.0   WSW   0.75  11.0   WSW   13.2   14.8   13.3  1015.0  0.00   0.0   0.013   0.000   22.5    62   14.9   22.7  11.30 1.1768    114    1    100.0    5 
24/10/14   5:55   14.6   14.6   14.6    96   13.9   8.0   WSW   0.67  10.0   WSW   13.5   14.7   13.7  1015.0  0.00   0.0   0.013   0.000   22.5    62   14.9   22.7  11.30 1.1768    116    1    100.0    5 
24/10/14   6:00   14.6   14.6   14.6    96   13.9   8.0   WSW   0.67  10.0   WSW   13.5   14.7   13.7  1015.0  0.00   0.0   0.013   0.000   22.5    62   14.9   22.7  11.30 1.1768    115    1    100.0    5 
24/10/14   6:05   14.6   14.6   14.6    96   14.0   8.0   WSW   0.67  10.0   WSW   13.6   14.8   13.8  1015.0  0.00   0.0   0.013   0.000   22.5    62   14.9   22.7  11.30 1.1767    116    1    100.0    5 
24/10/14   6:10   14.6   14.6   14.6    96   13.9   8.0   WSW   0.67  10.0   WSW   13.5   14.7   13.7  1014.9  0.00   0.0   0.013   0.000   22.4    62   14.8   22.6  11.30 1.1769    116    1    100.0    5 
24/10/14   6:15   14.6   14.6   14.6    96   14.0   8.0   WSW   0.67  10.0   WSW   13.6   14.8   13.8  1014.9  0.00   0.0   0.013   0.000   22.4    62   14.8   22.6  11.30 1.1769    117    1    100.0    5 
24/10/14   6:20   14.6   14.6   14.6    96   13.9   8.0   WSW   0.67   9.0   WSW   13.5   14.7   13.7  1014.8  0.00   0.0   0.013   0.000   22.4    62   14.8   22.6  11.30 1.1768    117    1    100.0    5 
24/10/14   6:25   14.6   14.6   14.6    96   13.9   7.0   WSW   0.58   9.0   WSW   13.9   14.7   14.1  1014.8  0.00   0.0   0.013   0.000   22.4    62   14.8   22.6  11.30 1.1768    117    1    100.0    5 
24/10/14   6:30   14.6   14.6   14.6    96   13.9   7.0   WSW   0.58   8.0   WSW   13.9   14.7   14.1  1014.7  0.00   0.0   0.013   0.000   22.4    62   14.8   22.6  11.30 1.1767    115    1    100.0    5 
24/10/14   6:35   14.5   14.5   14.5    96   13.9   6.0   WSW   0.50   8.0   WSW   14.1   14.7   14.2  1014.8  0.00   0.0   0.013   0.000   22.4    62   14.8   22.6  11.30 1.1767    117    1    100.0    5 
24/10/14   6:40   14.4   14.5   14.4    96   13.8   6.0   WSW   0.50   7.0   WSW   14.0   14.6   14.2  1014.8  0.00   0.0   0.014   0.000   22.4    62   14.8   22.6  11.30 1.1767    115    1    100.0    5 
24/10/14   6:45   14.4   14.4   14.4    96   13.8   5.0   WSW   0.42   7.0   WSW   14.2   14.6   14.4  1014.8  0.00   0.0   0.014   0.000   22.4    62   14.8   22.6  11.30 1.1767    115    1    100.0    5 
24/10/14   6:50   14.4   14.4   14.4    96   13.8   5.0   WSW   0.42   7.0   WSW   14.2   14.6   14.4  1014.8  0.00   0.0   0.014   0.000   22.4    62   14.8   22.6  11.30 1.1768    116    1    100.0    5 
24/10/14   6:55   14.5   14.5   14.4    96   13.9   6.0   WSW   0.50   8.0   WSW   14.1   14.7   14.2  1014.8  0.00   0.0   0.013   0.000   22.4    62   14.8   22.6  11.30 1.1768    117    1    100.0    5 
24/10/14   7:00   14.4   14.5   14.4    96   13.8   7.0   WSW   0.58   9.0   WSW   13.8   14.6   13.9  1014.8  0.00   0.0   0.014   0.000   22.4    62   14.8   22.6  11.30 1.1768    116    1    100.0    5 
24/10/14   7:05   14.4   14.4   14.4    96   13.8   8.0   WSW   0.67   9.0   WSW   13.3   14.6   13.5  1014.7  0.00   0.0   0.014   0.000   22.4    62   14.7   22.5  11.30 1.1770    117    1    100.0    5 
24/10/14   7:10   14.4   14.4   14.4    96   13.8   7.0   WSW   0.58   9.0   WSW   13.7   14.6   13.9  1014.8  0.00   0.0   0.014   0.000   22.4    62   14.8   22.6  11.30 1.1767    117    1    100.0    5 
24/10/14   7:15   14.4   14.4   14.4    96   13.8   6.0   WSW   0.50   8.0   WSW   14.0   14.6   14.2  1014.8  0.00   0.0   0.014   0.000   22.4    62   14.7   22.5  11.30 1.1771    117    1    100.0    5 
24/10/14   7:20   14.5   14.5   14.4    96   13.9   5.0   WSW   0.42   7.0   WSW   14.3   14.7   14.4  1014.8  0.00   0.0   0.013   0.000   22.4    62   14.7   22.5  11.30 1.1770    115    1    100.0    5 
24/10/14   7:25   14.5   14.5   14.5    96   13.9   4.0   WSW   0.33   6.0   WSW   14.5   14.7   14.7  1014.8  0.00   0.0   0.013   0.000   22.4    62   14.7   22.5  11.30 1.1771    117    1    100.0    5 
24/10/14   7:30   14.5   14.5   14.5    96   13.9   4.0   WSW   0.33   6.0   WSW   14.5   14.7   14.7  1014.9  0.00   0.0   0.013   0.000   22.4    62   14.7   22.5  11.30 1.1771    117    1    100.0    5 
24/10/14   7:35   14.5   14.5   14.4    96   13.9   5.0   WSW   0.42   8.0   WSW   14.3   14.7   14.4  1014.9  0.00   0.0   0.013   0.000   22.4    62   14.8   22.6  11.30 1.1769    117    1    100.0    5 
24/10/14   7:40   14.6   14.6   14.5    96   13.9   8.0   WSW   0.67  10.0   WSW   13.5   14.7   13.7  1014.9  0.20   0.0   0.013   0.000   22.4    62   14.7   22.5  11.30 1.1772    117    1    100.0    5 
24/10/14   7:45   14.6   14.6   14.6    96   13.9   7.0   WSW   0.58   9.0   WSW   13.9   14.7   14.1  1014.9  0.00   0.0   0.013   0.000   22.4    62   14.7   22.5  11.30 1.1772    115    1    100.0    5 
24/10/14   7:50   14.6   14.6   14.6    96   13.9   6.0   WSW   0.50   9.0   WSW   14.1   14.7   14.3  1015.0  0.00   0.0   0.013   0.000   22.4    62   14.7   22.5  11.30 1.1773    118    1    100.0    5 
24/10/14   7:55   14.6   14.6   14.6    96   13.9   5.0   WSW   0.42   8.0   WSW   14.3   14.7   14.5  1015.0  0.00   0.0   0.013   0.000   22.4    62   14.7   22.5  11.30 1.1773    116    1    100.0    5 
24/10/14   8:00   14.6   14.6   14.6    96   14.0   5.0   WSW   0.42   8.0   WSW   14.4   14.8   14.6  1015.0  0.00   0.0   0.013   0.000   22.4    62   14.7   22.5  11.30 1.1773    117    1    100.0    5 
24/10/14   8:05   14.6   14.6   14.6    96   14.0   6.0   WSW   0.50   8.0   WSW   14.2   14.8   14.4  1015.1  0.00   0.0   0.013   0.000   22.4    62   14.8   22.6  11.30 1.1771    117    1    100.0    5 
24/10/14   8:10   14.6   14.6   14.6    96   13.9   6.0   WSW   0.50   8.0   WSW   14.1   14.7   14.3  1015.1  0.00   0.0   0.013   0.000   22.4    63   15.1   22.6  11.50 1.1768    117    1    100.0    5 
24/10/14   8:15   14.6   14.6   14.6    96   14.0   7.0   WSW   0.58   9.0   WSW   14.0   14.8   14.2  1015.1  0.00   0.0   0.013   0.000   22.4    63   15.1   22.6  11.50 1.1768    117    1    100.0    5 
24/10/14   8:20   14.7   14.7   14.6    96   14.0   7.0   WSW   0.58   9.0   WSW   14.1   14.9   14.3  1015.2  0.00   0.0   0.013   0.000   22.4    63   15.1   22.6  11.50 1.1769    116    1    100.0    5 
24/10/14   8:25   14.7   14.7   14.7    96   14.0   7.0   WSW   0.58   9.0   WSW   14.1   14.9   14.3  1015.1  0.00   0.0   0.013   0.000   22.4    63   15.1   22.6  11.50 1.1769    116    1    100.0    5 
24/10/14   8:30   14.7   14.7   14.7    96   14.0   7.0   WSW   0.58   9.0   WSW   14.1   14.9   14.3  1015.2  0.00   0.0   0.013   0.000   22.5    63   15.1   22.7  11.50 1.1766    117    1    100.0    5 
24/10/14   8:35   14.7   14.7   14.7    96   14.0   6.0   WSW   0.50   8.0   WSW   14.3   14.9   14.5  1015.2  0.00   0.0   0.013   0.000   22.5    63   15.1   22.7  11.50 1.1766    117    1    100.0    5 
24/10/14   8:40   14.7   14.7   14.7    96   14.0   6.0   WSW   0.50   7.0   WSW   14.3   14.9   14.5  1015.2  0.00   0.0   0.013   0.000   22.5    63   15.1   22.7  11.50 1.1766    115    1    100.0    5 
24/10/14   8:45   14.7   14.7   14.7    96   14.1   7.0    SW   0.58   8.0    SW   14.1   14.9   14.3  1015.1  0.00   0.0   0.013   0.000   22.5    63   15.1   22.7  11.50 1.1765    117    1    100.0    5 
24/10/14   8:50   14.7   14.7   14.7    96   14.1   7.0    SW   0.58   9.0    SW   14.1   14.9   14.3  1015.1  0.00   0.0   0.013   0.000   22.5    63   15.1   22.7  11.50 1.1766    116    1    100.0    5 
24/10/14   8:55   14.8   14.8   14.7    96   14.1   8.0    SW   0.67   9.0   WSW   13.8   15.0   14.0  1015.2  0.00   0.0   0.012   0.000   22.6    63   15.2   22.8  11.50 1.1763    116    1    100.0    5 
24/10/14   9:00   14.8   14.8   14.8    96   14.1   8.0    SW   0.67   9.0    SW   13.8   15.0   14.0  1015.2  0.00   0.0   0.012   0.000   22.6    63   15.2   22.8  11.50 1.1764    117    1    100.0    5 
24/10/14   9:05   14.8   14.8   14.8    96   14.1   8.0   WSW   0.67   9.0    SW   13.8   15.0   14.0  1015.2  0.00   0.0   0.012   0.000   22.6    63   15.2   22.8  11.50 1.1764    117    1    100.0    5 
24/10/14   9:10   14.8   14.8   14.8    96   14.1   7.0   WSW   0.58   9.0    SW   14.2   15.0   14.4  1015.2  0.00   0.0   0.012   0.000   22.6    63   15.2   22.8  11.50 1.1760    117    1    100.0    5 
24/10/14   9:15   14.8   14.8   14.8    96   14.1   7.0    SW   0.58   9.0   WSW   14.2   15.0   14.4  1015.2  0.00   0.0   0.012   0.000   22.6    63   15.2   22.8  11.50 1.1761    114    1    100.0    5 
24/10/14   9:20   14.8   14.8   14.8    96   14.2   8.0    SW   0.67   9.0    SW   13.8   15.1   14.1  1015.1  0.00   0.0   0.012   0.000   22.6    63   15.2   22.8  11.50 1.1760    116    1    100.0    5 
24/10/14   9:25   14.9   14.9   14.8    96   14.3   8.0    SW   0.67  10.0    SW   13.9   15.1   14.2  1015.0  0.00   0.0   0.012   0.000   22.6    63   15.2   22.8  11.50 1.1759    117    1    100.0    5 
24/10/14   9:30   14.9   14.9   14.9    96   14.3   8.0    SW   0.67  11.0    SW   14.0   15.2   14.2  1015.0  0.00   0.0   0.012   0.000   22.6    63   15.2   22.8  11.50 1.1758    117    1    100.0    5 
24/10/14   9:35   14.9   14.9   14.9    96   14.3   9.0    SW   0.75  12.0    SW   13.6   15.2   13.8  1015.0  0.00   0.0   0.012   0.000   22.7    63   15.3   22.9  11.49 1.1755    116    1    100.0    5 
24/10/14   9:40   15.0   15.0   14.9    96   14.4   9.0    SW   0.75  11.0    SW   13.6   15.2   13.8  1015.1  0.00   0.0   0.012   0.000   22.6    63   15.2   22.8  11.50 1.1759    116    1    100.0    5 
24/10/14   9:45   15.0   15.1   15.0    96   14.4   9.0   WSW   0.75  10.0    SW   13.6   15.2   13.8  1015.1  0.00   0.0   0.012   0.000   22.7    63   15.3   22.9  11.49 1.1757    116    1    100.0    5 
24/10/14   9:50   15.1   15.1   15.0    96   14.4   8.0    SW   0.67  10.0   WSW   14.1   15.3   14.3  1015.2  0.00   0.0   0.011   0.000   22.7    63   15.3   22.9  11.49 1.1757    116    1    100.0    5 
24/10/14   9:55   15.0   15.0   15.0    96   14.4   8.0   WSW   0.67  10.0    SW   14.1   15.2   14.3  1015.1  0.00   0.0   0.012   0.000   22.7    63   15.3   23.0  11.49 1.1754    118    1    100.0    5 
24/10/14  10:00   15.0   15.1   15.0    96   14.4   8.0    SW   0.67  10.0    SW   14.1   15.2   14.3  1015.1  0.00   0.0   0.012   0.000   22.7    63   15.3   23.0  11.49 1.1754    115    1    100.0    5 
24/10/14  10:05   15.0   15.1   15.0    96   14.4   8.0    SW   0.67  10.0    SW   14.1   15.2   14.3  1015.1  0.00   0.0   0.012   0.000   22.8    63   15.4   23.1  11.49 1.1750    117    1    100.0    5 
24/10/14  10:10   15.0   15.0   15.0    96   14.4   7.0    SW   0.58   8.0    SW   14.4   15.2   14.7  1015.1  0.00   0.0   0.012   0.000   22.8    63   15.4   23.1  11.49 1.1751    117    1    100.0    5 
24/10/14  10:15   14.9   15.0   14.9    96   14.3   6.0    SW   0.50   9.0    SW   14.6   15.2   14.8  1015.0  0.00   0.0   0.012   0.000   22.8    63   15.4   23.2  11.49 1.1747    117    1    100.0    5 
24/10/14  10:20   15.1   15.1   14.9    96   14.4   8.0    SW   0.67  11.0    SW   14.1   15.3   14.3  1015.0  0.00   0.0   0.011   0.000   22.9    63   15.5   23.3  11.49 1.1744    116    1    100.0    5 
24/10/14  10:25   15.1   15.1   15.0    96   14.4   8.0    SW   0.67  10.0    SW   14.1   15.3   14.3  1014.9  0.00   0.0   0.011   0.000   22.9    63   15.5   23.3  11.48 1.1740    117    1    100.0    5 
24/10/14  10:30   15.3   15.3   15.1    96   14.6   8.0    SW   0.67   9.0    SW   14.4   15.5   14.6  1015.0  0.00   0.0   0.011   0.000   23.0    63   15.6   23.4  11.48 1.1738    117    1    100.0    5 
24/10/14  10:35   15.4   15.4   15.3    96   14.8   8.0    SW   0.67   9.0    SW   14.6   15.7   14.8  1015.0  0.00   0.0   0.010   0.000   23.1    63   15.6   23.5  11.48 1.1736    117    1    100.0    5 
24/10/14  10:40   15.4   15.4   15.4    96   14.8   8.0    SW   0.67   9.0    SW   14.6   15.7   14.8  1015.1  0.00   0.0   0.010   0.000   23.1    63   15.7   23.6  11.48 1.1733    116    1    100.0    5 
24/10/14  10:45   15.4   15.5   15.4    96   14.8   8.0    SW   0.67  10.0    SW   14.6   15.7   14.8  1015.1  0.00   0.0   0.010   0.000   23.2    63   15.7   23.7  11.48 1.1731    117    1    100.0    5 
24/10/14  10:50   15.4   15.4   15.4    96   14.8   8.0    SW   0.67  10.0    SW   14.5   15.6   14.7  1015.1  0.00   0.0   0.010   0.000   23.2    63   15.8   23.7  11.47 1.1728    117    1    100.0    5 
24/10/14  10:55   15.3   15.4   15.3    96   14.7   8.0    SW   0.67  10.0    SW   14.4   15.6   14.7  1015.0  0.00   0.0   0.010   0.000   23.3    63   15.8   23.8  11.47 1.1724    115    1    100.0    5 
24/10/14  11:00   15.4   15.4   15.3    96   14.8   7.0    SW   0.58   9.0    SW   14.9   15.6   15.1  1014.9  0.20   0.0   0.010   0.000   23.3    63   15.9   23.9  11.47 1.1719    118    1    100.0    5 
24/10/14  11:05   15.4   15.4   15.3    95   14.6   6.0    SW   0.50   8.0    SW   15.1   15.6   15.3  1014.9  0.00   0.0   0.010   0.000   23.4    63   15.9   23.9  11.47 1.1716    117    1    100.0    5 
24/10/14  11:10   15.3   15.4   15.3    95   14.5   6.0    SW   0.50   9.0    SW   15.1   15.6   15.3  1014.9  0.00   0.0   0.010   0.000   23.4    63   16.0   24.0  11.47 1.1713    117    1    100.0    5 
24/10/14  11:15   15.3   15.3   15.3    95   14.5   8.0    SW   0.67  10.0    SW   14.4   15.6   14.7  1014.8  0.00   0.0   0.010   0.000   23.5    63   16.0   24.1  11.46 1.1710    117    1    100.0    5 
24/10/14  11:20   15.3   15.3   15.3    95   14.5   8.0   SSW   0.67  10.0    SW   14.4   15.5   14.6  1014.8  0.00   0.0   0.011   0.000   23.6    63   16.1   24.2  11.46 1.1707    117    1    100.0    5 
24/10/14  11:25   15.3   15.3   15.2    96   14.6   7.0    SW   0.58   9.0    SW   14.8   15.5   15.0  1014.8  0.00   0.0   0.011   0.000   23.6    63   16.1   24.2  11.46 1.1706    116    1    100.0    5 
24/10/14  11:30   15.3   15.3   15.2    96   14.6   6.0    SW   0.50   8.0    SW   15.0   15.5   15.2  1014.8  0.00   0.0   0.011   0.000   23.6    63   16.2   24.2  11.46 1.1704    115    1    100.0    5 
24/10/14  11:35   15.3   15.3   15.3    96   14.6   6.0    SW   0.50   7.0    SW   15.0   15.5   15.2  1014.8  0.00   0.0   0.011   0.000   23.6    63   16.2   24.2  11.46 1.1703    117    1    100.0    5 
24/10/14  11:40   15.2   15.3   15.2    96   14.6   6.0    SW   0.50   8.0    SW   14.9   15.4   15.2  1014.8  0.00   0.0   0.011   0.000   23.7    63   16.2   24.3  11.46 1.1700    116    1    100.0    5 
24/10/14  11:45   15.2   15.3   15.2    96   14.6   7.0   SSW   0.58   9.0   SSW   14.7   15.4   14.9  1014.7  0.00   0.0   0.011   0.000   23.7    63   16.3   24.3  11.46 1.1696    117    1    100.0    5 
24/10/14  11:50   15.3   15.3   15.2    96   14.6   8.0   SSW   0.67  10.0     S   14.4   15.5   14.6  1014.6  0.00   0.0   0.011   0.000   23.7    63   16.3   24.3  11.46 1.1696    117    1    100.0    5 
24/10/14  11:55   15.3   15.3   15.3    96   14.6   8.0   SSW   0.67  10.0     S   14.4   15.5   14.6  1014.6  0.00   0.0   0.011   0.000   23.8    62   16.1   24.3  11.25 1.1696    116    1    100.0    5 
24/10/14  12:00   15.4   15.4   15.3    96   14.8   7.0   SSW   0.58  10.0     S   14.9   15.6   15.1  1014.5  0.00   0.0   0.010   0.000   23.8    63   16.3   24.4  11.45 1.1692    116    1    100.0    5 
24/10/14  12:05   15.4   15.4   15.3    96   14.8   6.0   SSW   0.50   8.0   SSW   15.1   15.6   15.3  1014.4  0.00   0.0   0.010   0.000   23.8    62   16.1   24.4  11.25 1.1691    116    1    100.0    5 
24/10/14  12:10   15.6   15.6   15.4    96   14.9   6.0   SSW   0.50   7.0   SSW   15.3   15.8   15.6  1014.3  0.00   0.0   0.010   0.000   23.8    63   16.4   24.4  11.45 1.1686    117    1    100.0    5 
24/10/14  12:15   15.6   15.6   15.6    96   14.9   6.0   SSW   0.50   7.0   SSW   15.3   15.8   15.6  1014.3  0.00   0.0   0.010   0.000   23.9    63   16.4   24.5  11.45 1.1683    117    1    100.0    5 
24/10/14  12:20   15.6   15.6   15.6    96   14.9   5.0   SSW   0.42   6.0   SSW   15.6   15.8   15.8  1014.2  0.00   0.0   0.010   0.000   23.9    63   16.5   24.6  11.45 1.1679    117    1    100.0    5 
24/10/14  12:25   15.7   15.7   15.6    96   15.0   6.0     S   0.50   7.0     S   15.4   15.9   15.7  1014.2  0.00   0.0   0.009   0.000   24.1    63   16.6   24.7  11.44 1.1673    116    1    100.0    5 
24/10/14  12:30   15.7   15.7   15.7    96   15.0   6.0     S   0.50   7.0     S   15.4   15.9   15.7  1014.2  0.00   0.0   0.009   0.000   24.1    64   16.8   24.7  11.64 1.1670    117    1    100.0    5 
24/10/14  12:35   15.6   15.7   15.6    96   15.0   6.0     S   0.50   7.0     S   15.4   15.8   15.6  1014.1  0.00   0.0   0.009   0.000   24.2    64   16.9   24.8  11.64 1.1663    116    1    100.0    5 
24/10/14  12:40   15.4   15.6   15.4    96   14.8   4.0   SSW   0.33   6.0     S   15.4   15.7   15.7  1014.2  0.00   0.0   0.010   0.000   24.2    64   17.0   24.8  11.64 1.1661    117    1    100.0    5 
24/10/14  12:45   15.3   15.4   15.3    96   14.7   4.0    SW   0.33   6.0    SW   15.3   15.6   15.6  1014.1  0.00   0.0   0.010   0.000   24.2    64   17.0   24.8  11.64 1.1659    117    1    100.0    5 
24/10/14  12:50   15.3   15.3   15.3    96   14.7   6.0    SW   0.50   7.0    SW   15.1   15.6   15.3  1013.9  0.00   0.0   0.010   0.000   24.3    64   17.0   24.9  11.64 1.1655    116    1    100.0    5 
24/10/14  12:55   15.4   15.4   15.3    96   14.8   5.0   SSW   0.42   7.0    SW   15.3   15.6   15.6  1013.8  0.00   0.0   0.010   0.000   24.3    64   17.1   24.9  11.63 1.1651    117    1    100.0    5 
24/10/14  13:00   15.4   15.4   15.4    96   14.8   4.0    SW   0.33   6.0    SW   15.4   15.7   15.7  1013.8  0.00   0.0   0.010   0.000   24.4    64   17.1   25.0  11.63 1.1648    117    1    100.0    5 
24/10/14  13:05   15.4   15.4   15.4    96   14.8   4.0    SW   0.33   5.0    SW   15.4   15.7   15.7  1013.7  0.00   0.0   0.010   0.000   25.1    68   18.7   26.0  12.47 1.1596    118    1    100.0    5 
24/10/14  13:10   15.3   15.4   15.3    96   14.7   4.0    SW   0.33   5.0    SW   15.3   15.6   15.6  1013.8  0.00   0.0   0.010   0.000   26.2    65   19.1   27.1  11.77 1.1549    116    1    100.0    5 
24/10/14  13:15   15.3   15.3   15.3    96   14.7   4.0    SW   0.33   5.0    SW   15.3   15.6   15.6  1013.7  0.00   0.0   0.010   0.000   26.8    60   18.4   27.6  10.75 1.1532    116    1    100.0    5 
24/10/14  13:20   15.4   15.4   15.3    96   14.8   3.0    SW   0.25   5.0    SW   15.4   15.6   15.6  1013.6  0.00   0.0   0.010   0.000   27.2    59   18.5   28.1  10.55 1.1515    117    1    100.0    5 
24/10/14  13:25   15.4   15.4   15.4    96   14.8   3.0    SW   0.25   6.0    SW   15.4   15.6   15.6  1013.6  0.00   0.0   0.010   0.000   27.5    60   19.0   28.6  10.75 1.1496    117    1    100.0    5 
24/10/14  13:30   15.3   15.4   15.3    96   14.7   4.0    SW   0.33   5.0    SW   15.3   15.6   15.6  1013.5  0.00   0.0   0.010   0.000   27.6    57   18.3   28.4  10.18 1.1504    116    1    100.0    5 
24/10/14  13:35   15.4   15.4   15.3    96   14.8   5.0    SW   0.42   6.0    SW   15.3   15.6   15.6  1013.4  0.00   0.0   0.010   0.000   27.1    57   17.9   27.8  10.17 1.1527    117    1    100.0    5 
24/10/14  13:40   15.4   15.4   15.4    96   14.8   6.0    SW   0.50   9.0     S   15.1   15.6   15.3  1013.3  0.00   0.0   0.010   0.000   26.6    58   17.7   27.2  10.35 1.1547    116    1    100.0    5 
24/10/14  13:45   15.4   15.4   15.3    96   14.8   7.0    SW   0.58   9.0    SW   14.9   15.6   15.1  1013.3  0.00   0.0   0.010   0.000   26.2    59   17.5   26.7  10.59 1.1567    117    1    100.0    5 
24/10/14  13:50   15.3   15.4   15.3    96   14.7   8.0    SW   0.67  10.0    SW   14.4   15.6   14.7  1013.2  0.00   0.0   0.010   0.000   25.8    60   17.5   26.4  10.81 1.1579    117    1    100.0    5 
24/10/14  13:55   15.3   15.3   15.3    96   14.6   7.0    SW   0.58   9.0    SW   14.8   15.5   15.0  1013.2  0.00   0.0   0.011   0.000   25.6    61   17.5   26.2  10.99 1.1587    117    1    100.0    5 
24/10/14  14:00   15.3   15.3   15.3    97   14.8   6.0    SW   0.50   8.0    SW   15.0   15.6   15.3  1013.1  0.00   0.0   0.011   0.000   25.4    61   17.3   25.9  11.00 1.1598    117    1    100.0    5 
24/10/14  14:05   15.3   15.3   15.3    97   14.8   6.0   WSW   0.50   7.0    SW   15.0   15.6   15.3  1013.0  0.00   0.0   0.011   0.000   25.3    61   17.2   25.8  11.00 1.1603    116    1    100.0    5 
24/10/14  14:10   15.3   15.3   15.2    97   14.8   6.0   WSW   0.50   8.0   WSW   15.0   15.6   15.3  1012.9  0.00   0.0   0.011   0.000   25.2    61   17.1   25.7  11.00 1.1607    118    1    100.0    5 
24/10/14  14:15   15.3   15.3   15.3    97   14.8   4.0   WSW   0.33   7.0   WSW   15.3   15.6   15.6  1012.8  0.00   0.0   0.011   0.000   25.1    62   17.3   25.6  11.21 1.1608    117    1    100.0    5 
24/10/14  14:20   15.3   15.3   15.3    97   14.8   5.0   WSW   0.42   6.0   WSW   15.2   15.6   15.5  1012.9  0.00   0.0   0.011   0.000   25.0    62   17.2   25.6  11.21 1.1612    117    1    100.0    5 
24/10/14  14:25   15.3   15.3   15.3    97   14.8   4.0   WSW   0.33   5.0   WSW   15.3   15.6   15.6  1012.8  0.00   0.0   0.011   0.000   24.9    62   17.2   25.5  11.21 1.1614    117    1    100.0    5 
24/10/14  14:30   15.2   15.3   15.2    97   14.7   4.0   WSW   0.33   5.0   WSW   15.2   15.5   15.5  1012.9  0.00   0.0   0.011   0.000   24.9    63   17.4   25.6  11.41 1.1611    117    1    100.0    5 
24/10/14  14:35   15.2   15.2   15.2    97   14.7   3.0   WSW   0.25   4.0   WSW   15.2   15.4   15.4  1012.8  0.00   0.0   0.011   0.000   24.9    63   17.4   25.6  11.41 1.1610    116    1    100.0    5 
24/10/14  14:40   15.2   15.2   15.2    97   14.7   2.0   WSW   0.17   3.0   WSW   15.2   15.4   15.4  1012.7  0.00   0.0   0.011   0.000   24.9    63   17.4   25.6  11.41 1.1609    116    1    100.0    5 
24/10/14  14:45   15.2   15.2   15.2    97   14.7   3.0   WSW   0.25   8.0    SW   15.2   15.4   15.4  1012.7  0.00   0.0   0.011   0.000   24.9    63   17.4   25.6  11.41 1.1609    115    1    100.0    5 
24/10/14  14:50   15.3   15.3   15.2    97   14.9   8.0    SW   0.67  10.0    SW   14.4   15.6   14.7  1012.7  0.00   0.0   0.010   0.000   24.9    63   17.4   25.6  11.41 1.1609    117    1    100.0    5 
24/10/14  14:55   15.3   15.3   15.3    97   14.9   4.0    NW   0.33   8.0   WSW   15.3   15.6   15.6  1012.7  0.00   0.0   0.010   0.000   24.9    63   17.4   25.6  11.41 1.1609    117    1    100.0    5 
24/10/14  15:00   15.3   15.4   15.3    97   14.9   5.0   WSW   0.42   7.0   WSW   15.3   15.6   15.6  1012.6  0.00   0.0   0.010   0.000   24.9    63   17.4   25.6  11.41 1.1608    117    1    100.0    5 
24/10/14  15:05   15.3   15.3   15.3    97   14.9   6.0   WSW   0.50   8.0   WSW   15.1   15.6   15.3  1012.6  0.00   0.0   0.010   0.000   24.9    63   17.4   25.6  11.41 1.1608    116    1    100.0    5 
24/10/14  15:10   15.4   15.4   15.3    97   14.9   5.0   WSW   0.42   7.0   WSW   15.3   15.7   15.6  1012.6  0.00   0.0   0.010   0.000   24.9    63   17.4   25.6  11.41 1.1607    117    1    100.0    5 
24/10/14  15:15   15.4   15.4   15.4    97   15.0   5.0   WSW   0.42   7.0    SW   15.4   15.7   15.7  1012.6  0.20   0.0   0.010   0.000   25.0    63   17.5   25.6  11.41 1.1605    118    1    100.0    5 
24/10/14  15:20   15.4   15.4   15.3    97   14.9   7.0   WSW   0.58   9.0    SW   14.9   15.7   15.2  1012.7  0.00   0.0   0.010   0.000   25.0    63   17.5   25.6  11.41 1.1606    116    1    100.0    5 
24/10/14  15:25   15.4   15.4   15.4    97   14.9   6.0    SW   0.50   7.0   WSW   15.1   15.7   15.4  1012.6  0.00   0.0   0.010   0.000   25.0    63   17.5   25.6  11.41 1.1605    116    1    100.0    5 
24/10/14  15:30   15.4   15.4   15.4    97   14.9   6.0    SW   0.50   7.0   WSW   15.1   15.7   15.4  1012.6  0.00   0.0   0.010   0.000   25.0    63   17.5   25.6  11.41 1.1604    117    1    100.0    5 
24/10/14  15:35   15.4   15.4   15.3    97   14.9   6.0    SW   0.50   8.0    SW   15.1   15.7   15.4  1012.6  0.00   0.0   0.010   0.000   25.1    63   17.5   25.7  11.41 1.1602    117    1    100.0    5 
24/10/14  15:40   15.3   15.4   15.3    97   14.9   7.0    SW   0.58   9.0    SW   14.8   15.6   15.1  1012.7  0.00   0.0   0.010   0.000   25.0    63   17.5   25.6  11.41 1.1606    117    1    100.0    5 
24/10/14  15:45   15.3   15.3   15.3    97   14.9   6.0    SW   0.50   8.0    SW   15.1   15.6   15.3  1012.7  0.00   0.0   0.010   0.000   25.1    63   17.5   25.7  11.41 1.1603    117    1    100.0    5 
24/10/14  15:50   15.3   15.3   15.3    97   14.9   7.0    SW   0.58   9.0    SW   14.8   15.6   15.1  1012.6  0.00   0.0   0.010   0.000   25.1    63   17.5   25.7  11.41 1.1602    117    1    100.0    5 
24/10/14  15:55   15.3   15.3   15.3    97   14.9   7.0    SW   0.58   9.0    SW   14.8   15.6   15.1  1012.5  0.00   0.0   0.010   0.000   25.1    63   17.5   25.7  11.41 1.1601    116    1    100.0    5 
24/10/14  16:00   15.3   15.3   15.3    97   14.8  10.0    SW   0.83  13.0   WSW   13.6   15.6   13.8  1012.5  0.00   0.0   0.011   0.000   25.1    63   17.5   25.7  11.41 1.1601    117    1    100.0    5 
24/10/14  16:05   15.3   15.3   15.3    97   14.9  10.0   WSW   0.83  12.0   WSW   13.6   15.6   13.9  1012.5  0.00   0.0   0.010   0.000   25.1    62   17.3   25.6  11.21 1.1605    117    1    100.0    5 
24/10/14  16:10   15.3   15.3   15.3    97   14.8   9.0   WSW   0.75  11.0   WSW   13.9   15.6   14.2  1012.5  0.00   0.0   0.011   0.000   25.1    62   17.3   25.6  11.21 1.1605    116    1    100.0    5 
24/10/14  16:15   15.3   15.3   15.3    97   14.8   7.0   WSW   0.58   9.0   WSW   14.8   15.6   15.1  1012.5  0.00   0.0   0.011   0.000   25.1    62   17.3   25.6  11.21 1.1605    118    1    100.0    5 
24/10/14  16:20   15.3   15.3   15.3    97   14.9   5.0   WSW   0.42   7.0   WSW   15.3   15.6   15.6  1012.4  0.00   0.0   0.010   0.000   25.1    62   17.3   25.6  11.21 1.1603    116    1    100.0    5 
24/10/14  16:25   15.3   15.3   15.3    97   14.8   6.0   WSW   0.50   8.0   WSW   15.0   15.6   15.3  1012.4  0.00   0.0   0.011   0.000   25.1    62   17.3   25.6  11.21 1.1604    117    1    100.0    5 
24/10/14  16:30   15.2   15.3   15.2    97   14.7   7.0    SW   0.58   9.0    SW   14.7   15.5   15.0  1012.5  0.00   0.0   0.011   0.000   25.1    62   17.3   25.6  11.21 1.1604    116    1    100.0    5 
24/10/14  16:35   15.2   15.2   15.2    97   14.7   7.0    SW   0.58   9.0    SW   14.7   15.4   14.9  1012.5  0.00   0.0   0.011   0.000   25.1    62   17.3   25.6  11.21 1.1605    117    1    100.0    5 
24/10/14  16:40   15.2   15.2   15.2    97   14.7   7.0    SW   0.58   9.0    SW   14.7   15.4   14.9  1012.5  0.00   0.0   0.011   0.000   25.1    62   17.3   25.6  11.21 1.1604    116    1    100.0    5 
24/10/14  16:45   15.2   15.2   15.2    97   14.7   7.0   WSW   0.58  10.0   WSW   14.7   15.4   14.9  1012.5  0.00   0.0   0.011   0.000   25.1    62   17.3   25.6  11.21 1.1604    117    1    100.0    5 
24/10/14  16:50   15.2   15.2   15.2    97   14.7   7.0   WSW   0.58   9.0   WSW   14.7   15.4   14.9  1012.4  0.00   0.0   0.011   0.000   25.1    62   17.3   25.6  11.21 1.1603    116    1    100.0    5 
24/10/14  16:55   15.2   15.2   15.2    97   14.7   7.0   WSW   0.58  11.0   WSW   14.7   15.4   14.9  1012.4  0.00   0.0   0.011   0.000   25.1    62   17.3   25.6  11.21 1.1603    116    1    100.0    5 
24/10/14  17:00   15.2   15.2   15.2    97   14.7   8.0   WSW   0.67  10.0   WSW   14.3   15.4   14.6  1012.4  0.00   0.0   0.011   0.000   25.1    62   17.3   25.6  11.21 1.1604    116    1    100.0    5 
24/10/14  17:05   15.2   15.2   15.2    97   14.7   8.0   WSW   0.67  11.0   WSW   14.3   15.4   14.6  1012.5  0.00   0.0   0.011   0.000   25.0    62   17.2   25.6  11.21 1.1607    117    1    100.0    5 
24/10/14  17:10   15.2   15.2   15.2    97   14.7  10.0   WSW   0.83  11.0   WSW   13.4   15.4   13.7  1012.6  0.00   0.0   0.011   0.000   24.9    61   16.9   25.4  11.01 1.1615    117    1    100.0    5 
24/10/14  17:15   15.2   15.2   15.1    97   14.7  10.0   WSW   0.83  12.0   WSW   13.4   15.4   13.7  1012.6  0.00   0.0   0.011   0.000   24.9    61   16.9   25.4  11.01 1.1615    117    1    100.0    5 
24/10/14  17:20   15.1   15.2   15.1    97   14.6   9.0   WSW   0.75  12.0   WSW   13.7   15.3   13.9  1012.6  0.00   0.0   0.011   0.000   24.9    61   16.9   25.4  11.01 1.1615    117    1    100.0    5 
24/10/14  17:25   15.1   15.1   15.1    97   14.6  11.0   WSW   0.92  13.0   WSW   13.0   15.3   13.2  1012.6  0.00   0.0   0.011   0.000   24.9    61   16.9   25.4  11.01 1.1618    117    1    100.0    5 
24/10/14  17:30   15.1   15.1   15.1    97   14.6  10.0   WSW   0.83  12.0   WSW   13.3   15.3   13.5  1012.7  0.00   0.0   0.011   0.000   24.9    61   16.9   25.4  11.01 1.1619    116    1    100.0    5 
24/10/14  17:35   15.1   15.1   15.1    97   14.6  10.0   WSW   0.83  12.0   WSW   13.3   15.3   13.5  1012.7  0.00   0.0   0.011   0.000   24.8    61   16.8   25.3  11.02 1.1623    117    1    100.0    5 
24/10/14  17:40   15.1   15.1   15.1    97   14.6  11.0   WSW   0.92  13.0   WSW   13.0   15.3   13.2  1012.7  0.00   0.0   0.011   0.000   24.8    61   16.8   25.3  11.02 1.1623    117    1    100.0    5 
24/10/14  17:45   15.1   15.1   15.1    97   14.6  10.0   WSW   0.83  13.0   WSW   13.3   15.3   13.6  1012.7  0.00   0.0   0.011   0.000   24.8    61   16.7   25.3  11.02 1.1625    117    1    100.0    5 
24/10/14  17:50   15.1   15.1   15.1    97   14.6   9.0   WSW   0.75  11.0   WSW   13.7   15.3   13.9  1012.7  0.00   0.0   0.011   0.000   24.8    61   16.7   25.3  11.02 1.1625    116    1    100.0    5 
24/10/14  17:55   15.1   15.1   15.1    96   14.4   8.0   WSW   0.67  11.0   WSW   14.1   15.3   14.3  1012.6  0.00   0.0   0.011   0.000   24.8    61   16.7   25.3  11.02 1.1624    117    1    100.0    5 
24/10/14  18:00   15.1   15.1   15.1    96   14.4   8.0   WSW   0.67  11.0   WSW   14.1   15.3   14.3  1012.6  0.00   0.0   0.011   0.000   24.8    62   17.0   25.3  11.22 1.1621    117    1    100.0    5 
24/10/14  18:05   15.1   15.1   15.1    96   14.4   7.0   WSW   0.58  10.0   WSW   14.5   15.3   14.7  1012.7  0.00   0.0   0.011   0.000   24.8    62   17.0   25.3  11.22 1.1621    117    1    100.0    5 
24/10/14  18:10   15.1   15.1   15.1    96   14.4   8.0   WSW   0.67  10.0   WSW   14.1   15.3   14.3  1012.8  0.00   0.0   0.011   0.000   24.8    62   17.1   25.4  11.22 1.1619    117    1    100.0    5 
24/10/14  18:15   15.1   15.1   15.1    97   14.6   8.0   WSW   0.67  10.0   WSW   14.1   15.3   14.3  1012.9  0.00   0.0   0.011   0.000   24.8    63   17.3   25.4  11.42 1.1617    117    1    100.0    5 
24/10/14  18:20   15.1   15.1   15.1    96   14.4   8.0   WSW   0.67  10.0   WSW   14.1   15.3   14.3  1012.9  0.00   0.0   0.011   0.000   24.9    62   17.1   25.4  11.21 1.1618    117    1    100.0    5 
24/10/14  18:25   15.1   15.1   15.1    96   14.4   7.0   WSW   0.58   9.0   WSW   14.5   15.3   14.7  1012.9  0.00   0.0   0.011   0.000   24.9    63   17.4   25.5  11.41 1.1614    118    1    100.0    5 
24/10/14  18:30   15.0   15.1   15.0    96   14.4   7.0   WSW   0.58   9.0   WSW   14.4   15.2   14.7  1013.0  0.00   0.0   0.012   0.000   24.9    63   17.4   25.5  11.41 1.1615    117    1    100.0    5 
24/10/14  18:35   15.0   15.1   15.0    96   14.4   7.0   WSW   0.58   9.0   WSW   14.4   15.2   14.7  1013.1  0.20   0.0   0.012   0.000   24.9    63   17.4   25.6  11.41 1.1614    117    1    100.0    5 
24/10/14  18:40   14.9   15.1   14.9    96   14.3   7.0   WSW   0.58   9.0   WSW   14.4   15.2   14.6  1013.1  0.00   0.0   0.012   0.000   24.9    63   17.4   25.6  11.41 1.1614    115    1    100.0    5 
24/10/14  18:45   14.9   14.9   14.9    97   14.4   7.0   WSW   0.58   9.0   WSW   14.3   15.1   14.6  1013.1  0.00   0.0   0.012   0.000   24.9    63   17.4   25.6  11.41 1.1614    117    1    100.0    5 
24/10/14  18:50   14.9   14.9   14.9    97   14.4   7.0   WSW   0.58  10.0   WSW   14.3   15.1   14.6  1013.2  0.00   0.0   0.012   0.000   24.9    63   17.4   25.6  11.41 1.1615    117    1    100.0    5 
24/10/14  18:55   14.9   14.9   14.9    97   14.4   6.0   WSW   0.50   9.0   WSW   14.6   15.1   14.8  1013.2  0.00   0.0   0.012   0.000   24.9    63   17.4   25.6  11.41 1.1615    116    1    100.0    5 
24/10/14  19:00   14.9   14.9   14.9    97   14.4   5.0     W   0.42   8.0   WSW   14.8   15.1   15.0  1013.3  0.00   0.0   0.012   0.000   24.9    63   17.4   25.6  11.41 1.1616    117    1    100.0    5 
24/10/14  19:05   14.8   14.9   14.8    97   14.4   6.0     W   0.50   9.0   WSW   14.4   15.1   14.7  1013.3  0.00   0.0   0.012   0.000   24.9    63   17.4   25.6  11.41 1.1616    117    1    100.0    5 
24/10/14  19:10   14.8   14.8   14.8    97   14.4   7.0     W   0.58  10.0     W   14.2   15.1   14.4  1013.4  0.00   0.0   0.012   0.000   24.9    63   17.4   25.6  11.41 1.1617    117    1    100.0    5 
24/10/14  19:15   14.8   14.8   14.8    97   14.4   7.0     W   0.58  10.0   WSW   14.2   15.1   14.4  1013.4  0.00   0.0   0.012   0.000   24.9    63   17.4   25.6  11.41 1.1617    117    1    100.0    5 
24/10/14  19:20   14.8   14.8   14.8    97   14.4   6.0     W   0.50   9.0     W   14.4   15.1   14.7  1013.4  0.00   0.0   0.012   0.000   24.9    63   17.4   25.6  11.41 1.1617    116    1    100.0    5 
24/10/14  19:25   14.8   14.8   14.8    97   14.4   6.0   WSW   0.50   9.0   WSW   14.4   15.1   14.7  1013.4  0.00   0.0   0.012   0.000   24.9    63   17.4   25.6  11.41 1.1618    118    1    100.0    5 
24/10/14  19:30   14.8   14.8   14.8    97   14.3   6.0   WSW   0.50   8.0   WSW   14.4   15.0   14.6  1013.3  0.00   0.0   0.012   0.000   25.0    63   17.5   25.6  11.41 1.1614    117    1    100.0    5 
24/10/14  19:35   14.7   14.8   14.7    96   14.1   8.0   WSW   0.67  12.0   WSW   13.7   14.9   13.9  1013.4  0.00   0.0   0.013   0.000   24.9    63   17.4   25.6  11.41 1.1617    117    1    100.0    5 
108358